Wetterdaten: Donnerstag, 11.06.2015
Datum Zeit Temp. Aussen +5cm Feuchte Auss BlattFeu 1 Luftdruck Regen Sonnenschein Regendauer Solar Windben
11.06.2015 00:00 16,9 C 14,4 C 66 % 0 lf 1022,9 hPa 0,0 l/m 0 min 0 min 0 W/m 10,5 km/h (2 Bft)
11.06.2015 00:02 16,9 C 14,4 C 66 % 0 lf 1022,9 hPa 0,0 l/m 0 min 0 min 0 W/m 12,6 km/h (3 Bft)
11.06.2015 00:05 16,9 C 14,4 C 66 % 0 lf 1022,9 hPa 0,0 l/m 0 min 0 min 0 W/m 14,6 km/h (3 Bft)
11.06.2015 00:06 16,9 C 14,4 C 66 % 0 lf 1022,9 hPa 0,0 l/m 0 min 0 min 0 W/m 8,4 km/h (2 Bft)
11.06.2015 00:08 16,9 C 14,4 C 66 % 0 lf 1022,9 hPa 0,0 l/m 0 min 0 min 0 W/m 10,5 km/h (2 Bft)
11.06.2015 00:10 16,9 C 14,4 C 66 % 0 lf 1022,9 hPa 0,0 l/m 0 min 0 min 0 W/m 16,7 km/h (3 Bft)
11.06.2015 00:12 16,9 C 14,4 C 66 % 0 lf 1022,9 hPa 0,0 l/m 0 min 0 min 0 W/m 14,6 km/h (3 Bft)
11.06.2015 00:14 16,8 C 14,4 C 66 % 0 lf 1022,8 hPa 0,0 l/m 0 min 0 min 0 W/m 14,6 km/h (3 Bft)
11.06.2015 00:16 16,8 C 14,4 C 66 % 0 lf 1022,9 hPa 0,0 l/m 0 min 0 min 0 W/m 12,6 km/h (3 Bft)
11.06.2015 00:18 16,8 C 14,4 C 67 % 0 lf 1022,8 hPa 0,0 l/m 0 min 0 min 0 W/m 14,6 km/h (3 Bft)
11.06.2015 00:20 16,8 C 14,4 C 67 % 0 lf 1022,9 hPa 0,0 l/m 0 min 0 min 0 W/m 14,6 km/h (3 Bft)
11.06.2015 00:22 16,8 C 14,4 C 67 % 0 lf 1022,9 hPa 0,0 l/m 0 min 0 min 0 W/m 12,6 km/h (3 Bft)
11.06.2015 00:24 16,8 C 14,4 C 67 % 0 lf 1022,9 hPa 0,0 l/m 0 min 0 min 0 W/m 10,5 km/h (2 Bft)
11.06.2015 00:26 16,8 C 14,4 C 67 % 0 lf 1022,8 hPa 0,0 l/m 0 min 0 min 0 W/m 10,5 km/h (2 Bft)
11.06.2015 00:28 16,7 C 14,4 C 67 % 0 lf 1022,8 hPa 0,0 l/m 0 min 0 min 0 W/m 16,7 km/h (3 Bft)
11.06.2015 00:30 16,7 C 14,4 C 67 % 0 lf 1022,8 hPa 0,0 l/m 0 min 0 min 0 W/m 16,7 km/h (3 Bft)
11.06.2015 00:32 16,7 C 14,4 C 67 % 0 lf 1022,8 hPa 0,0 l/m 0 min 0 min 0 W/m 14,6 km/h (3 Bft)
11.06.2015 00:34 16,7 C 14,4 C 67 % 0 lf 1022,8 hPa 0,0 l/m 0 min 0 min 0 W/m 12,6 km/h (3 Bft)
11.06.2015 00:36 16,7 C 14,4 C 67 % 0 lf 1022,7 hPa 0,0 l/m 0 min 0 min 0 W/m 16,7 km/h (3 Bft)
11.06.2015 00:38 16,7 C 14,4 C 68 % 0 lf 1022,7 hPa 0,0 l/m 0 min 0 min 0 W/m 20,9 km/h (4 Bft)
11.06.2015 00:40 16,6 C 14,4 C 68 % 0 lf 1022,7 hPa 0,0 l/m 0 min 0 min 0 W/m 14,6 km/h (3 Bft)
11.06.2015 00:42 16,6 C 14,4 C 68 % 0 lf 1022,7 hPa 0,0 l/m 0 min 0 min 0 W/m 16,7 km/h (3 Bft)
11.06.2015 00:44 16,6 C 14,4 C 68 % 0 lf 1022,7 hPa 0,0 l/m 0 min 0 min 0 W/m 12,6 km/h (3 Bft)
11.06.2015 00:46 16,6 C 14,4 C 68 % 0 lf 1022,7 hPa 0,0 l/m 0 min 0 min 0 W/m 18,8 km/h (3 Bft)
11.06.2015 00:48 16,6 C 15,0 C 68 % 0 lf 1022,7 hPa 0,0 l/m 0 min 0 min 0 W/m 20,9 km/h (4 Bft)
11.06.2015 00:50 16,6 C 15,0 C 68 % 0 lf 1022,6 hPa 0,0 l/m 0 min 0 min 0 W/m 18,8 km/h (3 Bft)
11.06.2015 00:52 16,6 C 15,0 C 68 % 0 lf 1022,6 hPa 0,0 l/m 0 min 0 min 0 W/m 16,7 km/h (3 Bft)
11.06.2015 00:54 16,6 C 15,0 C 68 % 0 lf 1022,6 hPa 0,0 l/m 0 min 0 min 0 W/m 10,5 km/h (2 Bft)
11.06.2015 00:56 16,6 C 15,0 C 68 % 0 lf 1022,6 hPa 0,0 l/m 0 min 0 min 0 W/m 16,7 km/h (3 Bft)
11.06.2015 00:58 16,6 C 14,4 C 68 % 0 lf 1022,7 hPa 0,0 l/m 0 min 0 min 0 W/m 16,7 km/h (3 Bft)
11.06.2015 01:00 16,6 C 14,4 C 68 % 0 lf 1022,7 hPa 0,0 l/m 0 min 0 min 0 W/m 14,6 km/h (3 Bft)
11.06.2015 01:02 16,6 C 14,4 C 68 % 0 lf 1022,7 hPa 0,0 l/m 0 min 0 min 0 W/m 18,8 km/h (3 Bft)
11.06.2015 01:04 16,6 C 14,4 C 68 % 0 lf 1022,7 hPa 0,0 l/m 0 min 0 min 0 W/m 16,7 km/h (3 Bft)
11.06.2015 01:06 16,6 C 14,4 C 68 % 0 lf 1022,6 hPa 0,0 l/m 0 min 0 min 0 W/m 14,6 km/h (3 Bft)
11.06.2015 01:08 16,6 C 14,4 C 68 % 0 lf 1022,7 hPa 0,0 l/m 0 min 0 min 0 W/m 16,7 km/h (3 Bft)
11.06.2015 01:10 16,6 C 14,4 C 68 % 0 lf 1022,7 hPa 0,0 l/m 0 min 0 min 0 W/m 10,5 km/h (2 Bft)
11.06.2015 01:12 16,6 C 14,4 C 68 % 0 lf 1022,7 hPa 0,0 l/m 0 min 0 min 0 W/m 20,9 km/h (4 Bft)
11.06.2015 01:14 16,6 C 14,4 C 68 % 0 lf 1022,7 hPa 0,0 l/m 0 min 0 min 0 W/m 10,5 km/h (2 Bft)
11.06.2015 01:16 16,6 C 14,4 C 68 % 0 lf 1022,7 hPa 0,0 l/m 0 min 0 min 0 W/m 12,6 km/h (3 Bft)
11.06.2015 01:18 16,6 C 14,4 C 68 % 0 lf 1022,6 hPa 0,0 l/m 0 min 0 min 0 W/m 16,7 km/h (3 Bft)
11.06.2015 01:20 16,6 C 15,0 C 68 % 0 lf 1022,7 hPa 0,0 l/m 0 min 0 min 0 W/m 14,6 km/h (3 Bft)
11.06.2015 01:22 16,6 C 15,0 C 68 % 0 lf 1022,7 hPa 0,0 l/m 0 min 0 min 0 W/m 25,1 km/h (4 Bft)
11.06.2015 01:24 16,7 C 15,0 C 68 % 0 lf 1022,7 hPa 0,0 l/m 0 min 0 min 0 W/m 12,6 km/h (3 Bft)
11.06.2015 01:26 16,7 C 15,0 C 68 % 0 lf 1022,7 hPa 0,0 l/m 0 min 0 min 0 W/m 16,7 km/h (3 Bft)
11.06.2015 01:28 16,7 C 15,6 C 68 % 0 lf 1022,7 hPa 0,0 l/m 0 min 0 min 0 W/m 10,5 km/h (2 Bft)
11.06.2015 01:30 16,7 C 15,6 C 68 % 0 lf 1022,8 hPa 0,0 l/m 0 min 0 min 0 W/m 14,6 km/h (3 Bft)
11.06.2015 01:32 16,7 C 15,6 C 68 % 0 lf 1022,7 hPa 0,0 l/m 0 min 0 min 0 W/m 16,7 km/h (3 Bft)
11.06.2015 01:34 16,8 C 15,6 C 68 % 0 lf 1022,7 hPa 0,0 l/m 0 min 0 min 0 W/m 10,5 km/h (2 Bft)
11.06.2015 01:36 16,8 C 15,6 C 68 % 0 lf 1022,7 hPa 0,0 l/m 0 min 0 min 0 W/m 18,8 km/h (3 Bft)
11.06.2015 01:38 16,8 C 15,6 C 68 % 0 lf 1022,8 hPa 0,0 l/m 0 min 0 min 0 W/m 14,6 km/h (3 Bft)
11.06.2015 01:40 16,9 C 15,6 C 68 % 0 lf 1022,7 hPa 0,0 l/m 0 min 0 min 0 W/m 12,6 km/h (3 Bft)
11.06.2015 01:42 16,9 C 15,6 C 68 % 0 lf 1022,7 hPa 0,0 l/m 0 min 0 min 0 W/m 16,7 km/h (3 Bft)
11.06.2015 01:44 16,9 C 15,6 C 68 % 0 lf 1022,7 hPa 0,0 l/m 0 min 0 min 0 W/m 16,7 km/h (3 Bft)
11.06.2015 01:46 16,9 C 15,6 C 68 % 0 lf 1022,6 hPa 0,0 l/m 0 min 0 min 0 W/m 10,5 km/h (2 Bft)
11.06.2015 01:48 17,0 C 15,6 C 68 % 0 lf 1022,7 hPa 0,0 l/m 0 min 0 min 0 W/m 10,5 km/h (2 Bft)
11.06.2015 01:50 17,0 C 15,6 C 68 % 0 lf 1022,7 hPa 0,0 l/m 0 min 0 min 0 W/m 12,6 km/h (3 Bft)
11.06.2015 01:52 17,1 C 15,6 C 67 % 0 lf 1022,7 hPa 0,0 l/m 0 min 0 min 0 W/m 10,5 km/h (2 Bft)
11.06.2015 01:54 17,1 C 15,6 C 67 % 0 lf 1022,6 hPa 0,0 l/m 0 min 0 min 0 W/m 10,5 km/h (2 Bft)
11.06.2015 01:56 17,1 C 15,6 C 67 % 0 lf 1022,6 hPa 0,0 l/m 0 min 0 min 0 W/m 12,6 km/h (3 Bft)
11.06.2015 01:58 17,1 C 15,6 C 67 % 0 lf 1022,6 hPa 0,0 l/m 0 min 0 min 0 W/m 10,5 km/h (2 Bft)
11.06.2015 02:00 17,0 C 15,6 C 67 % 0 lf 1022,6 hPa 0,0 l/m 0 min 0 min 0 W/m 14,6 km/h (3 Bft)
11.06.2015 02:02 17,0 C 15,6 C 67 % 0 lf 1022,7 hPa 0,0 l/m 0 min 0 min 0 W/m 14,6 km/h (3 Bft)
11.06.2015 02:04 17,0 C 15,0 C 67 % 0 lf 1022,7 hPa 0,0 l/m 0 min 0 min 0 W/m 18,8 km/h (3 Bft)
11.06.2015 02:06 16,9 C 15,0 C 66 % 0 lf 1022,7 hPa 0,0 l/m 0 min 0 min 0 W/m 14,6 km/h (3 Bft)
11.06.2015 02:08 16,9 C 15,0 C 66 % 0 lf 1022,6 hPa 0,0 l/m 0 min 0 min 0 W/m 14,6 km/h (3 Bft)
11.06.2015 02:10 16,9 C 15,0 C 66 % 0 lf 1022,6 hPa 0,0 l/m 0 min 0 min 0 W/m 10,5 km/h (2 Bft)
11.06.2015 02:12 16,8 C 15,0 C 66 % 0 lf 1022,7 hPa 0,0 l/m 0 min 0 min 0 W/m 14,6 km/h (3 Bft)
11.06.2015 02:14 16,8 C 15,0 C 66 % 0 lf 1022,7 hPa 0,0 l/m 0 min 0 min 0 W/m 16,7 km/h (3 Bft)
11.06.2015 02:16 16,8 C 15,0 C 67 % 0 lf 1022,7 hPa 0,0 l/m 0 min 0 min 0 W/m 12,6 km/h (3 Bft)
11.06.2015 02:18 16,7 C 15,0 C 67 % 0 lf 1022,7 hPa 0,0 l/m 0 min 0 min 0 W/m 10,5 km/h (2 Bft)
11.06.2015 02:20 16,7 C 15,0 C 67 % 0 lf 1022,7 hPa 0,0 l/m 0 min 0 min 0 W/m 10,5 km/h (2 Bft)
11.06.2015 02:22 16,7 C 14,4 C 67 % 0 lf 1022,7 hPa 0,0 l/m 0 min 0 min 0 W/m 10,5 km/h (2 Bft)
11.06.2015 02:24 16,6 C 14,4 C 67 % 0 lf 1022,7 hPa 0,0 l/m 0 min 0 min 0 W/m 10,5 km/h (2 Bft)
11.06.2015 02:26 16,6 C 14,4 C 67 % 0 lf 1022,7 hPa 0,0 l/m 0 min 0 min 0 W/m 12,6 km/h (3 Bft)
11.06.2015 02:28 16,5 C 14,4 C 67 % 0 lf 1022,8 hPa 0,0 l/m 0 min 0 min 0 W/m 12,6 km/h (3 Bft)
11.06.2015 02:30 16,4 C 14,4 C 67 % 0 lf 1022,8 hPa 0,0 l/m 0 min 0 min 0 W/m 12,6 km/h (3 Bft)
11.06.2015 02:32 16,4 C 14,4 C 67 % 0 lf 1022,8 hPa 0,0 l/m 0 min 0 min 0 W/m 12,6 km/h (3 Bft)
11.06.2015 02:34 16,4 C 14,4 C 67 % 0 lf 1022,7 hPa 0,0 l/m 0 min 0 min 0 W/m 10,5 km/h (2 Bft)
11.06.2015 02:36 16,3 C 14,4 C 67 % 0 lf 1022,7 hPa 0,0 l/m 0 min 0 min 0 W/m 10,5 km/h (2 Bft)
11.06.2015 02:38 16,3 C 14,4 C 67 % 0 lf 1022,7 hPa 0,0 l/m 0 min 0 min 0 W/m 8,4 km/h (2 Bft)
11.06.2015 02:40 16,2 C 14,4 C 67 % 0 lf 1022,7 hPa 0,0 l/m 0 min 0 min 0 W/m 10,5 km/h (2 Bft)
11.06.2015 02:42 16,2 C 14,4 C 67 % 0 lf 1022,7 hPa 0,0 l/m 0 min 0 min 0 W/m 10,5 km/h (2 Bft)
11.06.2015 02:44 16,2 C 14,4 C 67 % 0 lf 1022,7 hPa 0,0 l/m 0 min 0 min 0 W/m 8,4 km/h (2 Bft)
11.06.2015 02:46 16,1 C 13,9 C 67 % 0 lf 1022,6 hPa 0,0 l/m 0 min 0 min 0 W/m 8,4 km/h (2 Bft)
11.06.2015 02:48 16,1 C 13,9 C 67 % 0 lf 1022,6 hPa 0,0 l/m 0 min 0 min 0 W/m 4,2 km/h (1 Bft)
11.06.2015 02:50 16,1 C 13,9 C 68 % 0 lf 1022,6 hPa 0,0 l/m 0 min 0 min 0 W/m 8,4 km/h (2 Bft)
11.06.2015 02:52 16,0 C 14,4 C 68 % 0 lf 1022,6 hPa 0,0 l/m 0 min 0 min 0 W/m 10,5 km/h (2 Bft)
11.06.2015 02:54 16,0 C 13,9 C 68 % 0 lf 1022,6 hPa 0,0 l/m 0 min 0 min 0 W/m 10,5 km/h (2 Bft)
11.06.2015 02:56 15,9 C 14,4 C 68 % 0 lf 1022,6 hPa 0,0 l/m 0 min 0 min 0 W/m 6,3 km/h (2 Bft)
11.06.2015 02:58 15,9 C 13,9 C 68 % 0 lf 1022,6 hPa 0,0 l/m 0 min 0 min 0 W/m 14,6 km/h (3 Bft)
11.06.2015 03:00 15,9 C 13,9 C 68 % 0 lf 1022,6 hPa 0,0 l/m 0 min 0 min 0 W/m 8,4 km/h (2 Bft)
11.06.2015 03:02 15,9 C 13,9 C 68 % 0 lf 1022,6 hPa 0,0 l/m 0 min 0 min 0 W/m 12,6 km/h (3 Bft)
11.06.2015 03:04 15,8 C 13,9 C 68 % 0 lf 1022,5 hPa 0,0 l/m 0 min 0 min 0 W/m 10,5 km/h (2 Bft)
11.06.2015 03:06 15,8 C 13,9 C 68 % 0 lf 1022,5 hPa 0,0 l/m 0 min 0 min 0 W/m 8,4 km/h (2 Bft)
11.06.2015 03:08 15,8 C 13,9 C 68 % 0 lf 1022,5 hPa 0,0 l/m 0 min 0 min 0 W/m 8,4 km/h (2 Bft)
11.06.2015 03:10 15,8 C 13,9 C 69 % 0 lf 1022,5 hPa 0,0 l/m 0 min 0 min 0 W/m 8,4 km/h (2 Bft)
11.06.2015 03:12 15,7 C 13,9 C 69 % 0 lf 1022,4 hPa 0,0 l/m 0 min 0 min 0 W/m 8,4 km/h (2 Bft)
11.06.2015 03:14 15,7 C 13,9 C 69 % 0 lf 1022,5 hPa 0,0 l/m 0 min 0 min 0 W/m 16,7 km/h (3 Bft)
11.06.2015 03:16 15,7 C 13,9 C 69 % 0 lf 1022,4 hPa 0,0 l/m 0 min 0 min 0 W/m 8,4 km/h (2 Bft)
11.06.2015 03:18 15,6 C 13,9 C 69 % 0 lf 1022,4 hPa 0,0 l/m 0 min 0 min 0 W/m 8,4 km/h (2 Bft)
11.06.2015 03:20 15,6 C 13,9 C 69 % 0 lf 1022,4 hPa 0,0 l/m 0 min 0 min 0 W/m 8,4 km/h (2 Bft)
11.06.2015 03:22 15,6 C 13,9 C 69 % 0 lf 1022,3 hPa 0,0 l/m 0 min 0 min 0 W/m 8,4 km/h (2 Bft)
11.06.2015 03:24 15,5 C 13,9 C 69 % 0 lf 1022,3 hPa 0,0 l/m 0 min 0 min 0 W/m 6,3 km/h (2 Bft)
11.06.2015 03:26 15,4 C 13,3 C 69 % 0 lf 1022,3 hPa 0,0 l/m 0 min 0 min 0 W/m 10,5 km/h (2 Bft)
11.06.2015 03:28 15,4 C 13,3 C 69 % 0 lf 1022,3 hPa 0,0 l/m 0 min 0 min 0 W/m 6,3 km/h (2 Bft)
11.06.2015 03:30 15,4 C 13,3 C 70 % 0 lf 1022,2 hPa 0,0 l/m 0 min 0 min 0 W/m 8,4 km/h (2 Bft)
11.06.2015 03:32 15,4 C 13,3 C 70 % 0 lf 1022,3 hPa 0,0 l/m 0 min 0 min 0 W/m 8,4 km/h (2 Bft)
11.06.2015 03:34 15,3 C 13,3 C 70 % 0 lf 1022,3 hPa 0,0 l/m 0 min 0 min 0 W/m 8,4 km/h (2 Bft)
11.06.2015 03:36 15,3 C 13,3 C 70 % 0 lf 1022,3 hPa 0,0 l/m 0 min 0 min 0 W/m 8,4 km/h (2 Bft)
11.06.2015 03:38 15,2 C 13,3 C 70 % 0 lf 1022,2 hPa 0,0 l/m 0 min 0 min 0 W/m 8,4 km/h (2 Bft)
11.06.2015 03:40 15,2 C 13,3 C 70 % 0 lf 1022,2 hPa 0,0 l/m 0 min 0 min 0 W/m 10,5 km/h (2 Bft)
11.06.2015 03:42 15,2 C 13,3 C 70 % 0 lf 1022,2 hPa 0,0 l/m 0 min 0 min 0 W/m 8,4 km/h (2 Bft)
11.06.2015 03:44 15,1 C 12,8 C 70 % 0 lf 1022,2 hPa 0,0 l/m 0 min 0 min 0 W/m 8,4 km/h (2 Bft)
11.06.2015 03:46 15,1 C 12,8 C 71 % 0 lf 1022,1 hPa 0,0 l/m 0 min 0 min 0 W/m 10,5 km/h (2 Bft)
11.06.2015 03:48 15,0 C 12,8 C 71 % 0 lf 1022,2 hPa 0,0 l/m 0 min 0 min 0 W/m 8,4 km/h (2 Bft)
11.06.2015 03:50 14,9 C 12,8 C 71 % 0 lf 1022,2 hPa 0,0 l/m 0 min 0 min 0 W/m 8,4 km/h (2 Bft)
11.06.2015 03:52 14,9 C 12,8 C 71 % 0 lf 1022,2 hPa 0,0 l/m 0 min 0 min 0 W/m 8,4 km/h (2 Bft)
11.06.2015 03:54 14,9 C 12,8 C 71 % 0 lf 1022,2 hPa 0,0 l/m 0 min 0 min 0 W/m 8,4 km/h (2 Bft)
11.06.2015 03:56 14,8 C 12,8 C 71 % 0 lf 1022,1 hPa 0,0 l/m 0 min 0 min 0 W/m 8,4 km/h (2 Bft)
11.06.2015 03:58 14,8 C 12,8 C 72 % 0 lf 1022,1 hPa 0,0 l/m 0 min 0 min 0 W/m 8,4 km/h (2 Bft)
11.06.2015 04:00 14,7 C 12,8 C 72 % 0 lf 1022,1 hPa 0,0 l/m 0 min 0 min 0 W/m 8,4 km/h (2 Bft)
11.06.2015 04:02 14,7 C 12,8 C 72 % 0 lf 1022,1 hPa 0,0 l/m 0 min 0 min 0 W/m 8,4 km/h (2 Bft)
11.06.2015 04:04 14,6 C 12,8 C 72 % 0 lf 1022,1 hPa 0,0 l/m 0 min 0 min 0 W/m 6,3 km/h (2 Bft)
11.06.2015 04:06 14,6 C 12,8 C 72 % 0 lf 1022,1 hPa 0,0 l/m 0 min 0 min 0 W/m 6,3 km/h (2 Bft)
11.06.2015 04:08 14,6 C 12,8 C 73 % 0 lf 1022,1 hPa 0,0 l/m 0 min 0 min 0 W/m 8,4 km/h (2 Bft)
11.06.2015 04:10 14,5 C 12,8 C 73 % 0 lf 1022,1 hPa 0,0 l/m 0 min 0 min 0 W/m 8,4 km/h (2 Bft)
11.06.2015 04:12 14,4 C 12,8 C 73 % 0 lf 1022,1 hPa 0,0 l/m 0 min 0 min 0 W/m 8,4 km/h (2 Bft)
11.06.2015 04:14 14,4 C 12,8 C 73 % 0 lf 1022,2 hPa 0,0 l/m 0 min 0 min 0 W/m 8,4 km/h (2 Bft)
11.06.2015 04:16 14,3 C 12,2 C 73 % 0 lf 1022,1 hPa 0,0 l/m 0 min 0 min 0 W/m 6,3 km/h (2 Bft)
11.06.2015 04:18 14,3 C 12,2 C 73 % 0 lf 1022,1 hPa 0,0 l/m 0 min 0 min 0 W/m 6,3 km/h (2 Bft)
11.06.2015 04:20 14,3 C 12,2 C 73 % 0 lf 1022,2 hPa 0,0 l/m 0 min 0 min 0 W/m 6,3 km/h (2 Bft)
11.06.2015 04:22 14,2 C 12,2 C 73 % 0 lf 1022,1 hPa 0,0 l/m 0 min 0 min 0 W/m 4,2 km/h (1 Bft)
11.06.2015 04:24 14,2 C 12,2 C 74 % 0 lf 1022,1 hPa 0,0 l/m 0 min 0 min 0 W/m 6,3 km/h (2 Bft)
11.06.2015 04:26 14,2 C 12,2 C 74 % 0 lf 1022,0 hPa 0,0 l/m 0 min 0 min 0 W/m 6,3 km/h (2 Bft)
11.06.2015 04:28 14,2 C 12,2 C 74 % 0 lf 1022,0 hPa 0,0 l/m 0 min 0 min 0 W/m 6,3 km/h (2 Bft)
11.06.2015 04:30 14,2 C 12,2 C 74 % 0 lf 1022,0 hPa 0,0 l/m 0 min 0 min 0 W/m 6,3 km/h (2 Bft)
11.06.2015 04:32 14,2 C 12,2 C 74 % 0 lf 1022,0 hPa 0,0 l/m 0 min 0 min 0 W/m 8,4 km/h (2 Bft)
11.06.2015 04:34 14,2 C 12,2 C 74 % 0 lf 1022,0 hPa 0,0 l/m 0 min 0 min 0 W/m 6,3 km/h (2 Bft)
11.06.2015 04:36 14,1 C 12,2 C 75 % 0 lf 1022,0 hPa 0,0 l/m 0 min 0 min 0 W/m 8,4 km/h (2 Bft)
11.06.2015 04:38 14,0 C 12,2 C 75 % 0 lf 1022,0 hPa 0,0 l/m 0 min 0 min 0 W/m 8,4 km/h (2 Bft)
11.06.2015 04:40 14,0 C 12,2 C 75 % 0 lf 1022,0 hPa 0,0 l/m 0 min 0 min 0 W/m 8,4 km/h (2 Bft)
11.06.2015 04:42 13,9 C 12,2 C 75 % 0 lf 1022,0 hPa 0,0 l/m 0 min 0 min 0 W/m 8,4 km/h (2 Bft)
11.06.2015 04:44 13,9 C 12,2 C 76 % 0 lf 1022,0 hPa 0,0 l/m 0 min 0 min 0 W/m 8,4 km/h (2 Bft)
11.06.2015 04:46 13,9 C 12,2 C 75 % 0 lf 1022,0 hPa 0,0 l/m 0 min 0 min 0 W/m 10,5 km/h (2 Bft)
11.06.2015 04:48 13,8 C 12,2 C 76 % 0 lf 1022,0 hPa 0,0 l/m 0 min 0 min 0 W/m 10,5 km/h (2 Bft)
11.06.2015 04:50 13,8 C 12,2 C 76 % 0 lf 1021,9 hPa 0,0 l/m 0 min 0 min 0 W/m 8,4 km/h (2 Bft)
11.06.2015 04:52 13,8 C 12,2 C 76 % 0 lf 1022,0 hPa 0,0 l/m 0 min 0 min 0 W/m 6,3 km/h (2 Bft)
11.06.2015 04:54 13,7 C 12,2 C 76 % 0 lf 1021,9 hPa 0,0 l/m 0 min 0 min 0 W/m 8,4 km/h (2 Bft)
11.06.2015 04:56 13,7 C 12,2 C 76 % 0 lf 1021,9 hPa 0,0 l/m 0 min 0 min 0 W/m 6,3 km/h (2 Bft)
11.06.2015 04:58 13,7 C 12,2 C 76 % 0 lf 1021,9 hPa 0,0 l/m 0 min 0 min 0 W/m 6,3 km/h (2 Bft)
11.06.2015 05:00 13,7 C 12,2 C 77 % 0 lf 1021,9 hPa 0,0 l/m 0 min 0 min 0 W/m 8,4 km/h (2 Bft)
11.06.2015 05:02 13,6 C 12,2 C 77 % 0 lf 1021,9 hPa 0,0 l/m 0 min 0 min 0 W/m 6,3 km/h (2 Bft)
11.06.2015 05:04 13,6 C 12,2 C 77 % 0 lf 1021,9 hPa 0,0 l/m 0 min 0 min 0 W/m 4,2 km/h (1 Bft)
11.06.2015 05:06 13,6 C 11,7 C 77 % 0 lf 1021,9 hPa 0,0 l/m 0 min 0 min 0 W/m 6,3 km/h (2 Bft)
11.06.2015 05:08 13,6 C 11,7 C 77 % 0 lf 1021,9 hPa 0,0 l/m 0 min 0 min 0 W/m 6,3 km/h (2 Bft)
11.06.2015 05:10 13,6 C 11,7 C 77 % 0 lf 1021,8 hPa 0,0 l/m 0 min 0 min 0 W/m 6,3 km/h (2 Bft)
11.06.2015 05:12 13,5 C 11,7 C 77 % 0 lf 1021,9 hPa 0,0 l/m 0 min 0 min 0 W/m 6,3 km/h (2 Bft)
11.06.2015 05:14 13,5 C 11,7 C 77 % 0 lf 1021,8 hPa 0,0 l/m 0 min 0 min 0 W/m 8,4 km/h (2 Bft)
11.06.2015 05:16 13,5 C 11,7 C 77 % 0 lf 1021,8 hPa 0,0 l/m 0 min 0 min 4 W/m 8,4 km/h (2 Bft)
11.06.2015 05:18 13,4 C 11,7 C 77 % 0 lf 1021,9 hPa 0,0 l/m 0 min 0 min 5 W/m 6,3 km/h (2 Bft)
11.06.2015 05:20 13,4 C 11,7 C 77 % 0 lf 1021,8 hPa 0,0 l/m 0 min 0 min 5 W/m 6,3 km/h (2 Bft)
11.06.2015 05:22 13,4 C 11,7 C 77 % 0 lf 1021,9 hPa 0,0 l/m 0 min 0 min 5 W/m 4,2 km/h (1 Bft)
11.06.2015 05:24 13,4 C 11,1 C 77 % 0 lf 1021,9 hPa 0,0 l/m 0 min 0 min 5 W/m 4,2 km/h (1 Bft)
11.06.2015 05:26 13,3 C 11,1 C 77 % 0 lf 1021,8 hPa 0,0 l/m 0 min 0 min 7 W/m 6,3 km/h (2 Bft)
11.06.2015 05:28 13,3 C 11,1 C 78 % 0 lf 1021,8 hPa 0,0 l/m 0 min 0 min 7 W/m 6,3 km/h (2 Bft)
11.06.2015 05:30 13,3 C 11,7 C 78 % 0 lf 1021,8 hPa 0,0 l/m 0 min 0 min 8 W/m 6,3 km/h (2 Bft)
11.06.2015 05:32 13,3 C 11,7 C 78 % 0 lf 1021,8 hPa 0,0 l/m 0 min 0 min 9 W/m 6,3 km/h (2 Bft)
11.06.2015 05:34 13,2 C 11,7 C 78 % 0 lf 1021,8 hPa 0,0 l/m 0 min 0 min 10 W/m 4,2 km/h (1 Bft)
11.06.2015 05:36 13,2 C 11,1 C 78 % 0 lf 1021,8 hPa 0,0 l/m 0 min 0 min 11 W/m 6,3 km/h (2 Bft)
11.06.2015 05:38 13,2 C 11,1 C 78 % 0 lf 1021,8 hPa 0,0 l/m 0 min 0 min 12 W/m 4,2 km/h (1 Bft)
11.06.2015 05:40 13,2 C 11,1 C 78 % 0 lf 1021,8 hPa 0,0 l/m 0 min 0 min 13 W/m 4,2 km/h (1 Bft)
11.06.2015 05:42 13,1 C 11,1 C 78 % 0 lf 1021,7 hPa 0,0 l/m 0 min 0 min 15 W/m 4,2 km/h (1 Bft)
11.06.2015 05:44 13,1 C 11,7 C 78 % 0 lf 1021,7 hPa 0,0 l/m 0 min 0 min 17 W/m 6,3 km/h (2 Bft)
11.06.2015 05:46 13,1 C 11,7 C 78 % 0 lf 1021,8 hPa 0,0 l/m 0 min 0 min 18 W/m 4,2 km/h (1 Bft)
11.06.2015 05:48 13,1 C 11,7 C 79 % 0 lf 1021,7 hPa 0,0 l/m 0 min 0 min 20 W/m 4,2 km/h (1 Bft)
11.06.2015 05:50 13,0 C 11,7 C 79 % 0 lf 1021,7 hPa 0,0 l/m 0 min 0 min 25 W/m 4,2 km/h (1 Bft)
11.06.2015 05:52 13,0 C 11,7 C 79 % 0 lf 1021,6 hPa 0,0 l/m 2 min 0 min 30 W/m 6,3 km/h (2 Bft)
11.06.2015 05:54 12,9 C 11,7 C 79 % 0 lf 1021,6 hPa 0,0 l/m 0 min 0 min 30 W/m 6,3 km/h (2 Bft)
11.06.2015 05:56 12,9 C 11,7 C 79 % 0 lf 1021,7 hPa 0,0 l/m 0 min 0 min 30 W/m 4,2 km/h (1 Bft)
11.06.2015 05:58 12,9 C 11,7 C 79 % 0 lf 1021,7 hPa 0,0 l/m 0 min 0 min 34 W/m 4,2 km/h (1 Bft)
11.06.2015 06:00 12,9 C 11,7 C 79 % 0 lf 1021,7 hPa 0,0 l/m 2 min 0 min 43 W/m 4,2 km/h (1 Bft)
11.06.2015 06:02 12,9 C 11,7 C 80 % 0 lf 1021,7 hPa 0,0 l/m 2 min 0 min 42 W/m 4,2 km/h (1 Bft)
11.06.2015 06:06 12,9 C 11,7 C 80 % 0 lf 1021,7 hPa 0,0 l/m 0 min 0 min 37 W/m 6,3 km/h (2 Bft)
11.06.2015 06:08 12,9 C 11,7 C 80 % 0 lf 1021,6 hPa 0,0 l/m 0 min 0 min 39 W/m 6,3 km/h (2 Bft)
11.06.2015 06:10 12,9 C 11,7 C 80 % 0 lf 1021,6 hPa 0,0 l/m 0 min 0 min 37 W/m 6,3 km/h (2 Bft)
11.06.2015 06:12 12,9 C 11,7 C 80 % 0 lf 1021,5 hPa 0,0 l/m 0 min 0 min 39 W/m 8,4 km/h (2 Bft)
11.06.2015 06:14 12,9 C 11,7 C 80 % 0 lf 1021,5 hPa 0,0 l/m 0 min 0 min 42 W/m 6,3 km/h (2 Bft)
11.06.2015 06:16 12,8 C 11,7 C 81 % 0 lf 1021,5 hPa 0,0 l/m 0 min 0 min 46 W/m 8,4 km/h (2 Bft)
11.06.2015 06:18 12,8 C 11,7 C 81 % 0 lf 1021,5 hPa 0,0 l/m 0 min 0 min 52 W/m 6,3 km/h (2 Bft)
11.06.2015 06:20 12,8 C 11,7 C 81 % 0 lf 1021,5 hPa 0,0 l/m 0 min 0 min 53 W/m 6,3 km/h (2 Bft)
11.06.2015 06:22 12,9 C 11,7 C 81 % 0 lf 1021,5 hPa 0,0 l/m 0 min 0 min 49 W/m 6,3 km/h (2 Bft)
11.06.2015 06:24 12,9 C 11,7 C 81 % 0 lf 1021,5 hPa 0,0 l/m 0 min 0 min 49 W/m 8,4 km/h (2 Bft)
11.06.2015 06:26 12,9 C 11,7 C 81 % 0 lf 1021,5 hPa 0,0 l/m 0 min 0 min 50 W/m 6,3 km/h (2 Bft)
11.06.2015 06:28 12,9 C 11,7 C 81 % 0 lf 1021,5 hPa 0,0 l/m 0 min 0 min 53 W/m 6,3 km/h (2 Bft)
11.06.2015 06:30 12,9 C 11,7 C 81 % 0 lf 1021,5 hPa 0,0 l/m 0 min 0 min 57 W/m 6,3 km/h (2 Bft)
11.06.2015 06:32 12,9 C 11,7 C 81 % 0 lf 1021,5 hPa 0,0 l/m 0 min 0 min 64 W/m 8,4 km/h (2 Bft)
11.06.2015 06:34 12,9 C 11,7 C 81 % 0 lf 1021,4 hPa 0,0 l/m 0 min 0 min 74 W/m 6,3 km/h (2 Bft)
11.06.2015 06:36 12,9 C 11,7 C 81 % 0 lf 1021,4 hPa 0,0 l/m 2 min 0 min 81 W/m 8,4 km/h (2 Bft)
11.06.2015 06:38 12,9 C 11,7 C 81 % 0 lf 1021,4 hPa 0,0 l/m 0 min 0 min 65 W/m 6,3 km/h (2 Bft)
11.06.2015 06:40 12,9 C 11,7 C 81 % 0 lf 1021,4 hPa 0,0 l/m 0 min 0 min 66 W/m 8,4 km/h (2 Bft)
11.06.2015 06:42 12,9 C 11,7 C 81 % 0 lf 1021,4 hPa 0,0 l/m 2 min 0 min 100 W/m 8,4 km/h (2 Bft)
11.06.2015 06:44 12,9 C 12,2 C 81 % 0 lf 1021,4 hPa 0,0 l/m 0 min 0 min 87 W/m 8,4 km/h (2 Bft)
11.06.2015 06:46 12,9 C 12,2 C 81 % 0 lf 1021,4 hPa 0,0 l/m 0 min 0 min 88 W/m 6,3 km/h (2 Bft)
11.06.2015 06:48 12,9 C 12,2 C 81 % 0 lf 1021,3 hPa 0,0 l/m 0 min 0 min 77 W/m 8,4 km/h (2 Bft)
11.06.2015 06:50 12,9 C 12,2 C 81 % 0 lf 1021,4 hPa 0,0 l/m 0 min 0 min 84 W/m 8,4 km/h (2 Bft)
11.06.2015 06:52 12,9 C 12,2 C 82 % 0 lf 1021,4 hPa 0,0 l/m 2 min 0 min 105 W/m 8,4 km/h (2 Bft)
11.06.2015 06:54 13,0 C 12,2 C 82 % 0 lf 1021,4 hPa 0,0 l/m 2 min 0 min 123 W/m 8,4 km/h (2 Bft)
11.06.2015 06:56 13,0 C 12,2 C 82 % 0 lf 1021,4 hPa 0,0 l/m 2 min 0 min 105 W/m 8,4 km/h (2 Bft)
11.06.2015 06:58 13,0 C 12,2 C 82 % 0 lf 1021,4 hPa 0,0 l/m 2 min 0 min 150 W/m 10,5 km/h (2 Bft)
11.06.2015 07:00 13,1 C 12,2 C 82 % 0 lf 1021,4 hPa 0,0 l/m 2 min 0 min 126 W/m 8,4 km/h (2 Bft)
11.06.2015 07:02 13,1 C 12,2 C 82 % 0 lf 1021,3 hPa 0,0 l/m 2 min 0 min 138 W/m 8,4 km/h (2 Bft)
11.06.2015 07:04 13,1 C 12,2 C 82 % 0 lf 1021,4 hPa 0,0 l/m 2 min 0 min 136 W/m 8,4 km/h (2 Bft)
11.06.2015 07:06 13,2 C 12,2 C 82 % 0 lf 1021,4 hPa 0,0 l/m 2 min 0 min 122 W/m 10,5 km/h (2 Bft)
11.06.2015 07:08 13,2 C 12,8 C 82 % 0 lf 1021,4 hPa 0,0 l/m 2 min 0 min 126 W/m 10,5 km/h (2 Bft)
11.06.2015 07:10 13,2 C 12,8 C 82 % 0 lf 1021,4 hPa 0,0 l/m 2 min 0 min 151 W/m 10,5 km/h (2 Bft)
11.06.2015 07:12 13,3 C 12,8 C 82 % 0 lf 1021,5 hPa 0,0 l/m 2 min 0 min 222 W/m 10,5 km/h (2 Bft)
11.06.2015 07:14 13,3 C 12,8 C 82 % 0 lf 1021,4 hPa 0,0 l/m 2 min 0 min 221 W/m 8,4 km/h (2 Bft)
11.06.2015 07:16 13,3 C 12,8 C 82 % 0 lf 1021,3 hPa 0,0 l/m 2 min 0 min 211 W/m 10,5 km/h (2 Bft)
11.06.2015 07:18 13,4 C 12,8 C 82 % 0 lf 1021,3 hPa 0,0 l/m 2 min 0 min 174 W/m 8,4 km/h (2 Bft)
11.06.2015 07:20 13,4 C 12,8 C 82 % 0 lf 1021,2 hPa 0,0 l/m 2 min 0 min 155 W/m 8,4 km/h (2 Bft)
11.06.2015 07:22 13,4 C 12,8 C 82 % 0 lf 1021,2 hPa 0,0 l/m 2 min 0 min 150 W/m 8,4 km/h (2 Bft)
11.06.2015 07:24 13,5 C 12,8 C 82 % 0 lf 1021,2 hPa 0,0 l/m 2 min 0 min 246 W/m 8,4 km/h (2 Bft)
11.06.2015 07:26 13,6 C 12,8 C 82 % 0 lf 1021,2 hPa 0,0 l/m 2 min 0 min 255 W/m 6,3 km/h (2 Bft)
11.06.2015 07:28 13,6 C 12,8 C 82 % 0 lf 1021,2 hPa 0,0 l/m 2 min 0 min 251 W/m 8,4 km/h (2 Bft)
11.06.2015 07:30 13,7 C 13,3 C 82 % 0 lf 1021,1 hPa 0,0 l/m 2 min 0 min 258 W/m 10,5 km/h (2 Bft)
11.06.2015 07:32 13,7 C 13,3 C 82 % 0 lf 1021,1 hPa 0,0 l/m 2 min 0 min 250 W/m 10,5 km/h (2 Bft)
11.06.2015 07:34 13,8 C 13,3 C 81 % 0 lf 1021,1 hPa 0,0 l/m 2 min 0 min 253 W/m 10,5 km/h (2 Bft)
11.06.2015 07:36 13,9 C 13,3 C 81 % 0 lf 1021,1 hPa 0,0 l/m 2 min 0 min 270 W/m 10,5 km/h (2 Bft)
11.06.2015 07:38 13,9 C 13,3 C 81 % 0 lf 1021,1 hPa 0,0 l/m 2 min 0 min 273 W/m 10,5 km/h (2 Bft)
11.06.2015 07:40 14,0 C 13,3 C 81 % 0 lf 1021,1 hPa 0,0 l/m 2 min 0 min 278 W/m 8,4 km/h (2 Bft)
11.06.2015 07:42 14,2 C 13,3 C 81 % 0 lf 1021,1 hPa 0,0 l/m 2 min 0 min 283 W/m 10,5 km/h (2 Bft)
11.06.2015 07:44 14,2 C 13,9 C 81 % 0 lf 1021,1 hPa 0,0 l/m 2 min 0 min 288 W/m 10,5 km/h (2 Bft)
11.06.2015 07:46 14,2 C 13,9 C 81 % 0 lf 1021,1 hPa 0,0 l/m 2 min 0 min 294 W/m 10,5 km/h (2 Bft)
11.06.2015 07:48 14,2 C 13,9 C 80 % 0 lf 1021,1 hPa 0,0 l/m 2 min 0 min 294 W/m 8,4 km/h (2 Bft)
11.06.2015 07:50 14,3 C 13,9 C 80 % 0 lf 1021,1 hPa 0,0 l/m 2 min 0 min 296 W/m 10,5 km/h (2 Bft)
11.06.2015 07:52 14,3 C 13,9 C 80 % 0 lf 1021,0 hPa 0,0 l/m 2 min 0 min 298 W/m 8,4 km/h (2 Bft)
11.06.2015 07:54 14,4 C 13,9 C 80 % 0 lf 1021,0 hPa 0,0 l/m 2 min 0 min 309 W/m 12,6 km/h (3 Bft)
11.06.2015 07:56 14,5 C 13,9 C 80 % 0 lf 1021,0 hPa 0,0 l/m 2 min 0 min 315 W/m 16,7 km/h (3 Bft)
11.06.2015 07:58 14,5 C 13,9 C 80 % 0 lf 1021,0 hPa 0,0 l/m 2 min 0 min 325 W/m 14,6 km/h (3 Bft)
11.06.2015 08:00 14,6 C 13,9 C 79 % 0 lf 1021,0 hPa 0,0 l/m 2 min 0 min 332 W/m 14,6 km/h (3 Bft)
11.06.2015 08:02 14,7 C 13,9 C 79 % 0 lf 1021,1 hPa 0,0 l/m 2 min 0 min 336 W/m 20,9 km/h (4 Bft)
11.06.2015 08:04 14,7 C 14,4 C 78 % 0 lf 1021,0 hPa 0,0 l/m 2 min 0 min 344 W/m 18,8 km/h (3 Bft)
11.06.2015 08:06 14,8 C 14,4 C 78 % 0 lf 1021,0 hPa 0,0 l/m 2 min 0 min 352 W/m 14,6 km/h (3 Bft)
11.06.2015 08:08 14,9 C 14,4 C 78 % 0 lf 1021,0 hPa 0,0 l/m 2 min 0 min 347 W/m 16,7 km/h (3 Bft)
11.06.2015 08:10 15,0 C 14,4 C 77 % 0 lf 1021,0 hPa 0,0 l/m 2 min 0 min 363 W/m 16,7 km/h (3 Bft)
11.06.2015 08:12 15,1 C 14,4 C 77 % 0 lf 1021,0 hPa 0,0 l/m 2 min 0 min 370 W/m 16,7 km/h (3 Bft)
11.06.2015 08:14 15,2 C 14,4 C 77 % 0 lf 1021,0 hPa 0,0 l/m 2 min 0 min 374 W/m 12,6 km/h (3 Bft)
11.06.2015 08:16 15,3 C 15,0 C 77 % 0 lf 1021,0 hPa 0,0 l/m 2 min 0 min 382 W/m 16,7 km/h (3 Bft)
11.06.2015 08:18 15,4 C 15,0 C 76 % 0 lf 1021,0 hPa 0,0 l/m 2 min 0 min 391 W/m 20,9 km/h (4 Bft)
11.06.2015 08:20 15,5 C 15,0 C 76 % 0 lf 1021,0 hPa 0,0 l/m 2 min 0 min 397 W/m 16,7 km/h (3 Bft)
11.06.2015 08:22 15,6 C 15,0 C 75 % 0 lf 1020,9 hPa 0,0 l/m 2 min 0 min 403 W/m 12,6 km/h (3 Bft)
11.06.2015 08:24 15,7 C 15,0 C 75 % 0 lf 1021,0 hPa 0,0 l/m 2 min 0 min 410 W/m 18,8 km/h (3 Bft)
11.06.2015 08:26 15,8 C 15,0 C 75 % 0 lf 1020,9 hPa 0,0 l/m 2 min 0 min 416 W/m 16,7 km/h (3 Bft)
11.06.2015 08:28 15,9 C 15,0 C 75 % 0 lf 1020,9 hPa 0,0 l/m 2 min 0 min 422 W/m 18,8 km/h (3 Bft)
11.06.2015 08:30 16,1 C 15,6 C 75 % 0 lf 1021,0 hPa 0,0 l/m 2 min 0 min 427 W/m 23,0 km/h (4 Bft)
11.06.2015 08:32 16,2 C 15,6 C 74 % 0 lf 1020,9 hPa 0,0 l/m 2 min 0 min 431 W/m 18,8 km/h (3 Bft)
11.06.2015 08:34 16,3 C 15,6 C 74 % 0 lf 1020,9 hPa 0,0 l/m 2 min 0 min 436 W/m 10,5 km/h (2 Bft)
11.06.2015 08:36 16,4 C 15,6 C 73 % 0 lf 1020,9 hPa 0,0 l/m 2 min 0 min 441 W/m 14,6 km/h (3 Bft)
11.06.2015 08:38 16,6 C 15,6 C 72 % 0 lf 1021,0 hPa 0,0 l/m 2 min 0 min 444 W/m 18,8 km/h (3 Bft)
11.06.2015 08:40 16,8 C 15,6 C 71 % 0 lf 1021,0 hPa 0,0 l/m 2 min 0 min 449 W/m 12,6 km/h (3 Bft)
11.06.2015 08:42 16,9 C 15,6 C 71 % 0 lf 1021,0 hPa 0,0 l/m 2 min 0 min 454 W/m 14,6 km/h (3 Bft)
11.06.2015 08:44 17,1 C 16,1 C 71 % 0 lf 1021,0 hPa 0,0 l/m 2 min 0 min 440 W/m 14,6 km/h (3 Bft)
11.06.2015 08:46 17,2 C 16,1 C 71 % 0 lf 1021,0 hPa 0,0 l/m 2 min 0 min 437 W/m 12,6 km/h (3 Bft)
11.06.2015 08:48 17,4 C 16,1 C 70 % 0 lf 1021,0 hPa 0,0 l/m 2 min 0 min 470 W/m 12,6 km/h (3 Bft)
11.06.2015 08:50 17,5 C 16,1 C 69 % 0 lf 1021,0 hPa 0,0 l/m 2 min 0 min 476 W/m 20,9 km/h (4 Bft)
11.06.2015 08:52 17,6 C 16,7 C 69 % 0 lf 1021,0 hPa 0,0 l/m 2 min 0 min 482 W/m 14,6 km/h (3 Bft)
11.06.2015 08:54 17,7 C 16,7 C 69 % 0 lf 1021,0 hPa 0,0 l/m 2 min 0 min 489 W/m 18,8 km/h (3 Bft)
11.06.2015 08:56 17,9 C 16,7 C 69 % 0 lf 1020,9 hPa 0,0 l/m 2 min 0 min 492 W/m 14,6 km/h (3 Bft)
11.06.2015 08:58 18,1 C 16,7 C 69 % 0 lf 1021,0 hPa 0,0 l/m 2 min 0 min 499 W/m 18,8 km/h (3 Bft)
11.06.2015 09:00 18,2 C 16,7 C 67 % 0 lf 1020,9 hPa 0,0 l/m 2 min 0 min 503 W/m 16,7 km/h (3 Bft)
11.06.2015 09:02 18,3 C 16,7 C 67 % 0 lf 1020,9 hPa 0,0 l/m 2 min 0 min 507 W/m 16,7 km/h (3 Bft)
11.06.2015 09:04 18,4 C 16,7 C 67 % 0 lf 1020,9 hPa 0,0 l/m 2 min 0 min 512 W/m 18,8 km/h (3 Bft)
11.06.2015 09:06 18,5 C 16,7 C 66 % 0 lf 1020,8 hPa 0,0 l/m 2 min 0 min 516 W/m 14,6 km/h (3 Bft)
11.06.2015 09:08 18,6 C 17,2 C 66 % 0 lf 1020,9 hPa 0,0 l/m 2 min 0 min 523 W/m 16,7 km/h (3 Bft)
11.06.2015 09:10 18,7 C 17,2 C 66 % 0 lf 1020,8 hPa 0,0 l/m 2 min 0 min 528 W/m 14,6 km/h (3 Bft)
11.06.2015 09:12 18,8 C 17,2 C 66 % 0 lf 1020,8 hPa 0,0 l/m 2 min 0 min 535 W/m 14,6 km/h (3 Bft)
11.06.2015 09:14 18,9 C 17,2 C 65 % 0 lf 1020,7 hPa 0,0 l/m 2 min 0 min 538 W/m 14,6 km/h (3 Bft)
11.06.2015 09:16 19,0 C 17,2 C 64 % 0 lf 1020,8 hPa 0,0 l/m 2 min 0 min 540 W/m 16,7 km/h (3 Bft)
11.06.2015 09:18 19,1 C 17,2 C 64 % 0 lf 1020,8 hPa 0,0 l/m 2 min 0 min 547 W/m 16,7 km/h (3 Bft)
11.06.2015 09:20 19,2 C 17,8 C 64 % 0 lf 1020,8 hPa 0,0 l/m 2 min 0 min 551 W/m 16,7 km/h (3 Bft)
11.06.2015 09:22 19,2 C 17,8 C 64 % 0 lf 1020,8 hPa 0,0 l/m 2 min 0 min 556 W/m 12,6 km/h (3 Bft)
11.06.2015 09:24 19,3 C 17,8 C 64 % 0 lf 1020,8 hPa 0,0 l/m 2 min 0 min 561 W/m 16,7 km/h (3 Bft)
11.06.2015 09:26 19,4 C 17,8 C 64 % 0 lf 1020,7 hPa 0,0 l/m 2 min 0 min 568 W/m 12,6 km/h (3 Bft)
11.06.2015 09:28 19,6 C 17,8 C 64 % 0 lf 1020,7 hPa 0,0 l/m 2 min 0 min 571 W/m 14,6 km/h (3 Bft)
11.06.2015 09:30 19,7 C 17,8 C 63 % 0 lf 1020,7 hPa 0,0 l/m 2 min 0 min 578 W/m 12,6 km/h (3 Bft)
11.06.2015 09:32 19,8 C 18,3 C 63 % 0 lf 1020,7 hPa 0,0 l/m 2 min 0 min 583 W/m 16,7 km/h (3 Bft)
11.06.2015 09:34 19,9 C 18,3 C 63 % 0 lf 1020,6 hPa 0,0 l/m 2 min 0 min 588 W/m 12,6 km/h (3 Bft)
11.06.2015 09:36 20,1 C 18,3 C 62 % 0 lf 1020,7 hPa 0,0 l/m 2 min 0 min 593 W/m 14,6 km/h (3 Bft)
11.06.2015 09:38 20,2 C 18,3 C 62 % 0 lf 1020,7 hPa 0,0 l/m 2 min 0 min 598 W/m 18,8 km/h (3 Bft)
11.06.2015 09:40 20,2 C 18,3 C 62 % 0 lf 1020,7 hPa 0,0 l/m 2 min 0 min 603 W/m 18,8 km/h (3 Bft)
11.06.2015 09:42 20,3 C 18,9 C 61 % 0 lf 1020,7 hPa 0,0 l/m 2 min 0 min 609 W/m 18,8 km/h (3 Bft)
11.06.2015 09:44 20,3 C 18,9 C 61 % 0 lf 1020,7 hPa 0,0 l/m 2 min 0 min 612 W/m 18,8 km/h (3 Bft)
11.06.2015 09:46 20,4 C 18,9 C 60 % 0 lf 1020,6 hPa 0,0 l/m 2 min 0 min 617 W/m 18,8 km/h (3 Bft)
11.06.2015 09:48 20,4 C 18,9 C 61 % 0 lf 1020,6 hPa 0,0 l/m 2 min 0 min 624 W/m 14,6 km/h (3 Bft)
11.06.2015 09:50 20,5 C 18,9 C 60 % 0 lf 1020,6 hPa 0,0 l/m 2 min 0 min 626 W/m 18,8 km/h (3 Bft)
11.06.2015 09:52 20,6 C 19,4 C 61 % 0 lf 1020,7 hPa 0,0 l/m 2 min 0 min 632 W/m 14,6 km/h (3 Bft)
11.06.2015 09:54 20,7 C 18,9 C 60 % 0 lf 1020,7 hPa 0,0 l/m 2 min 0 min 635 W/m 20,9 km/h (4 Bft)
11.06.2015 09:56 20,8 C 19,4 C 60 % 0 lf 1020,7 hPa 0,0 l/m 2 min 0 min 640 W/m 18,8 km/h (3 Bft)
11.06.2015 09:58 20,8 C 20,0 C 60 % 0 lf 1020,6 hPa 0,0 l/m 2 min 0 min 644 W/m 16,7 km/h (3 Bft)
11.06.2015 10:00 20,9 C 21,7 C 60 % 0 lf 1020,6 hPa 0,0 l/m 2 min 0 min 647 W/m 16,7 km/h (3 Bft)
11.06.2015 10:02 20,9 C 22,8 C 60 % 0 lf 1020,6 hPa 0,0 l/m 2 min 0 min 652 W/m 8,4 km/h (2 Bft)
11.06.2015 10:04 21,0 C 22,8 C 60 % 0 lf 1020,6 hPa 0,0 l/m 2 min 0 min 657 W/m 14,6 km/h (3 Bft)
11.06.2015 10:06 21,1 C 23,3 C 60 % 0 lf 1020,6 hPa 0,0 l/m 2 min 0 min 661 W/m 14,6 km/h (3 Bft)
11.06.2015 10:08 21,2 C 23,3 C 60 % 0 lf 1020,5 hPa 0,0 l/m 2 min 0 min 665 W/m 20,9 km/h (4 Bft)
11.06.2015 10:10 21,2 C 22,8 C 59 % 0 lf 1020,5 hPa 0,0 l/m 2 min 0 min 671 W/m 16,7 km/h (3 Bft)
11.06.2015 10:12 21,2 C 23,3 C 59 % 0 lf 1020,4 hPa 0,0 l/m 2 min 0 min 677 W/m 14,6 km/h (3 Bft)
11.06.2015 10:14 21,3 C 24,4 C 61 % 0 lf 1020,5 hPa 0,0 l/m 2 min 0 min 681 W/m 8,4 km/h (2 Bft)
11.06.2015 10:16 21,3 C 25,6 C 60 % 0 lf 1020,5 hPa 0,0 l/m 2 min 0 min 683 W/m 14,6 km/h (3 Bft)
11.06.2015 10:18 21,4 C 26,1 C 59 % 0 lf 1020,5 hPa 0,0 l/m 2 min 0 min 688 W/m 12,6 km/h (3 Bft)
11.06.2015 10:20 21,6 C 26,1 C 59 % 0 lf 1020,5 hPa 0,0 l/m 2 min 0 min 695 W/m 14,6 km/h (3 Bft)
11.06.2015 10:22 21,7 C 26,7 C 59 % 0 lf 1020,4 hPa 0,0 l/m 2 min 0 min 699 W/m 14,6 km/h (3 Bft)
11.06.2015 10:24 21,8 C 25,6 C 58 % 0 lf 1020,5 hPa 0,0 l/m 2 min 0 min 703 W/m 14,6 km/h (3 Bft)
11.06.2015 10:26 21,9 C 25,0 C 58 % 0 lf 1020,4 hPa 0,0 l/m 2 min 0 min 708 W/m 14,6 km/h (3 Bft)
11.06.2015 10:28 22,0 C 25,0 C 58 % 0 lf 1020,5 hPa 0,0 l/m 2 min 0 min 712 W/m 8,4 km/h (2 Bft)
11.06.2015 10:30 22,1 C 25,6 C 57 % 0 lf 1020,5 hPa 0,0 l/m 2 min 0 min 716 W/m 14,6 km/h (3 Bft)
11.06.2015 10:32 22,2 C 25,6 C 57 % 0 lf 1020,5 hPa 0,0 l/m 2 min 0 min 720 W/m 10,5 km/h (2 Bft)
11.06.2015 10:34 22,3 C 25,0 C 58 % 0 lf 1020,5 hPa 0,0 l/m 2 min 0 min 724 W/m 10,5 km/h (2 Bft)
11.06.2015 10:36 22,4 C 24,4 C 58 % 0 lf 1020,5 hPa 0,0 l/m 2 min 0 min 729 W/m 12,6 km/h (3 Bft)
11.06.2015 10:38 22,6 C 24,4 C 56 % 0 lf 1020,4 hPa 0,0 l/m 2 min 0 min 731 W/m 14,6 km/h (3 Bft)
11.06.2015 10:40 22,7 C 24,4 C 56 % 0 lf 1020,4 hPa 0,0 l/m 2 min 0 min 735 W/m 8,4 km/h (2 Bft)
11.06.2015 10:42 22,8 C 25,0 C 57 % 0 lf 1020,3 hPa 0,0 l/m 2 min 0 min 739 W/m 8,4 km/h (2 Bft)
11.06.2015 10:44 22,9 C 24,4 C 55 % 0 lf 1020,3 hPa 0,0 l/m 2 min 0 min 739 W/m 14,6 km/h (3 Bft)
11.06.2015 10:46 22,9 C 23,3 C 54 % 0 lf 1020,3 hPa 0,0 l/m 2 min 0 min 743 W/m 12,6 km/h (3 Bft)
11.06.2015 10:48 23,0 C 23,3 C 54 % 0 lf 1020,3 hPa 0,0 l/m 2 min 0 min 749 W/m 16,7 km/h (3 Bft)
11.06.2015 10:50 23,0 C 23,3 C 55 % 0 lf 1020,3 hPa 0,0 l/m 2 min 0 min 755 W/m 16,7 km/h (3 Bft)
11.06.2015 10:52 23,0 C 24,4 C 55 % 0 lf 1020,1 hPa 0,0 l/m 2 min 0 min 758 W/m 14,6 km/h (3 Bft)
11.06.2015 10:54 23,1 C 24,4 C 54 % 0 lf 1020,1 hPa 0,0 l/m 2 min 0 min 763 W/m 12,6 km/h (3 Bft)
11.06.2015 10:56 23,1 C 25,0 C 54 % 0 lf 1020,1 hPa 0,0 l/m 2 min 0 min 766 W/m 18,8 km/h (3 Bft)
11.06.2015 10:58 23,2 C 25,0 C 53 % 0 lf 1020,1 hPa 0,0 l/m 2 min 0 min 770 W/m 14,6 km/h (3 Bft)
11.06.2015 11:00 23,2 C 26,1 C 53 % 0 lf 1020,0 hPa 0,0 l/m 2 min 0 min 775 W/m 16,7 km/h (3 Bft)
11.06.2015 11:02 23,2 C 27,2 C 53 % 0 lf 1020,0 hPa 0,0 l/m 2 min 0 min 780 W/m 14,6 km/h (3 Bft)
11.06.2015 11:04 23,3 C 27,8 C 54 % 0 lf 1019,9 hPa 0,0 l/m 2 min 0 min 786 W/m 10,5 km/h (2 Bft)
11.06.2015 11:06 23,4 C 27,8 C 53 % 0 lf 1019,9 hPa 0,0 l/m 2 min 0 min 792 W/m 14,6 km/h (3 Bft)
11.06.2015 11:08 23,5 C 27,8 C 52 % 0 lf 1019,9 hPa 0,0 l/m 2 min 0 min 797 W/m 10,5 km/h (2 Bft)
11.06.2015 11:10 23,6 C 27,8 C 52 % 0 lf 1019,9 hPa 0,0 l/m 2 min 0 min 799 W/m 18,8 km/h (3 Bft)
11.06.2015 11:12 23,7 C 27,8 C 52 % 0 lf 1019,9 hPa 0,0 l/m 2 min 0 min 803 W/m 18,8 km/h (3 Bft)
11.06.2015 11:14 23,7 C 27,2 C 49 % 0 lf 1019,9 hPa 0,0 l/m 2 min 0 min 803 W/m 20,9 km/h (4 Bft)
11.06.2015 11:16 23,7 C 27,2 C 50 % 0 lf 1019,9 hPa 0,0 l/m 2 min 0 min 797 W/m 20,9 km/h (4 Bft)
11.06.2015 11:18 23,8 C 27,2 C 51 % 0 lf 1019,9 hPa 0,0 l/m 2 min 0 min 803 W/m 18,8 km/h (3 Bft)
11.06.2015 11:20 23,8 C 26,7 C 49 % 0 lf 1019,9 hPa 0,0 l/m 2 min 0 min 814 W/m 25,1 km/h (4 Bft)
11.06.2015 11:22 23,9 C 26,7 C 49 % 0 lf 1019,9 hPa 0,0 l/m 2 min 0 min 819 W/m 20,9 km/h (4 Bft)
11.06.2015 11:24 23,9 C 27,2 C 48 % 0 lf 1019,9 hPa 0,0 l/m 2 min 0 min 820 W/m 16,7 km/h (3 Bft)
11.06.2015 11:26 24,0 C 27,8 C 48 % 0 lf 1019,8 hPa 0,0 l/m 2 min 0 min 818 W/m 16,7 km/h (3 Bft)
11.06.2015 11:28 24,0 C 27,8 C 48 % 0 lf 1019,8 hPa 0,0 l/m 2 min 0 min 819 W/m 29,3 km/h (5 Bft)
11.06.2015 11:30 24,1 C 27,8 C 48 % 0 lf 1019,7 hPa 0,0 l/m 2 min 0 min 831 W/m 18,8 km/h (3 Bft)
11.06.2015 11:32 24,1 C 26,7 C 49 % 0 lf 1019,8 hPa 0,0 l/m 2 min 0 min 837 W/m 18,8 km/h (3 Bft)
11.06.2015 11:34 24,2 C 25,0 C 47 % 0 lf 1019,7 hPa 0,0 l/m 2 min 0 min 840 W/m 23,0 km/h (4 Bft)
11.06.2015 11:36 24,2 C 24,4 C 47 % 0 lf 1019,7 hPa 0,0 l/m 2 min 0 min 841 W/m 20,9 km/h (4 Bft)
11.06.2015 11:38 24,3 C 24,4 C 47 % 0 lf 1019,7 hPa 0,0 l/m 2 min 0 min 838 W/m 23,0 km/h (4 Bft)
11.06.2015 11:40 24,4 C 25,0 C 47 % 0 lf 1019,6 hPa 0,0 l/m 2 min 0 min 848 W/m 18,8 km/h (3 Bft)
11.06.2015 11:42 24,5 C 26,7 C 48 % 0 lf 1019,6 hPa 0,0 l/m 2 min 0 min 845 W/m 27,2 km/h (4 Bft)
11.06.2015 11:44 24,6 C 28,3 C 47 % 0 lf 1019,5 hPa 0,0 l/m 2 min 0 min 846 W/m 16,7 km/h (3 Bft)
11.06.2015 11:46 24,7 C 28,3 C 46 % 0 lf 1019,5 hPa 0,0 l/m 2 min 0 min 848 W/m 16,7 km/h (3 Bft)
11.06.2015 11:48 24,8 C 27,8 C 46 % 0 lf 1019,4 hPa 0,0 l/m 2 min 0 min 849 W/m 18,8 km/h (3 Bft)
11.06.2015 11:50 24,8 C 27,8 C 46 % 0 lf 1019,4 hPa 0,0 l/m 2 min 0 min 831 W/m 14,6 km/h (3 Bft)
11.06.2015 11:52 24,7 C 27,8 C 45 % 0 lf 1019,4 hPa 0,0 l/m 2 min 0 min 839 W/m 23,0 km/h (4 Bft)
11.06.2015 11:54 24,7 C 28,3 C 46 % 0 lf 1019,4 hPa 0,0 l/m 2 min 0 min 842 W/m 12,6 km/h (3 Bft)
11.06.2015 11:56 24,7 C 28,3 C 46 % 0 lf 1019,3 hPa 0,0 l/m 2 min 0 min 864 W/m 18,8 km/h (3 Bft)
11.06.2015 11:58 24,7 C 28,3 C 45 % 0 lf 1019,3 hPa 0,0 l/m 2 min 0 min 873 W/m 27,2 km/h (4 Bft)
11.06.2015 12:00 24,7 C 27,2 C 45 % 0 lf 1019,3 hPa 0,0 l/m 2 min 0 min 869 W/m 33,5 km/h (5 Bft)
11.06.2015 12:02 24,6 C 28,3 C 46 % 0 lf 1019,3 hPa 0,0 l/m 2 min 0 min 852 W/m 25,1 km/h (4 Bft)
11.06.2015 12:06 24,7 C 28,3 C 46 % 0 lf 1019,3 hPa 0,0 l/m 2 min 0 min 865 W/m 25,1 km/h (4 Bft)
11.06.2015 12:08 24,7 C 27,8 C 45 % 0 lf 1019,2 hPa 0,0 l/m 2 min 0 min 863 W/m 27,2 km/h (4 Bft)
11.06.2015 12:10 24,7 C 27,8 C 45 % 0 lf 1019,2 hPa 0,0 l/m 2 min 0 min 874 W/m 14,6 km/h (3 Bft)
11.06.2015 12:12 24,7 C 28,3 C 45 % 0 lf 1019,1 hPa 0,0 l/m 2 min 0 min 873 W/m 8,4 km/h (2 Bft)
11.06.2015 12:14 24,7 C 28,9 C 46 % 0 lf 1019,1 hPa 0,0 l/m 2 min 0 min 868 W/m 14,6 km/h (3 Bft)
11.06.2015 12:16 24,7 C 27,2 C 44 % 0 lf 1019,1 hPa 0,0 l/m 2 min 0 min 854 W/m 18,8 km/h (3 Bft)
11.06.2015 12:18 24,7 C 27,8 C 45 % 0 lf 1019,1 hPa 0,0 l/m 2 min 0 min 668 W/m 16,7 km/h (3 Bft)
11.06.2015 12:20 24,7 C 27,8 C 45 % 0 lf 1019,1 hPa 0,0 l/m 0 min 0 min 167 W/m 14,6 km/h (3 Bft)
11.06.2015 12:22 24,7 C 28,3 C 45 % 0 lf 1019,1 hPa 0,0 l/m 2 min 0 min 590 W/m 16,7 km/h (3 Bft)
11.06.2015 12:24 24,7 C 28,3 C 44 % 0 lf 1019,1 hPa 0,0 l/m 2 min 0 min 899 W/m 25,1 km/h (4 Bft)
11.06.2015 12:26 24,8 C 28,3 C 45 % 0 lf 1019,1 hPa 0,0 l/m 2 min 0 min 890 W/m 20,9 km/h (4 Bft)
11.06.2015 12:28 24,9 C 28,9 C 44 % 0 lf 1019,0 hPa 0,0 l/m 2 min 0 min 895 W/m 18,8 km/h (3 Bft)
11.06.2015 12:30 24,9 C 28,9 C 45 % 0 lf 1018,9 hPa 0,0 l/m 2 min 0 min 892 W/m 14,6 km/h (3 Bft)
11.06.2015 12:32 25,1 C 29,4 C 45 % 0 lf 1018,9 hPa 0,0 l/m 2 min 0 min 888 W/m 12,6 km/h (3 Bft)
11.06.2015 12:34 25,1 C 29,4 C 45 % 0 lf 1018,9 hPa 0,0 l/m 2 min 0 min 899 W/m 6,3 km/h (2 Bft)
11.06.2015 12:36 25,3 C 29,4 C 44 % 0 lf 1018,9 hPa 0,0 l/m 2 min 0 min 904 W/m 14,6 km/h (3 Bft)
11.06.2015 12:38 25,4 C 27,8 C 44 % 0 lf 1018,9 hPa 0,0 l/m 2 min 0 min 916 W/m 20,9 km/h (4 Bft)
11.06.2015 12:40 25,4 C 27,2 C 44 % 0 lf 1018,9 hPa 0,0 l/m 2 min 0 min 918 W/m 16,7 km/h (3 Bft)
11.06.2015 12:42 25,5 C 26,1 C 43 % 0 lf 1018,8 hPa 0,0 l/m 2 min 0 min 445 W/m 14,6 km/h (3 Bft)
11.06.2015 12:44 25,5 C 26,7 C 43 % 0 lf 1018,8 hPa 0,0 l/m 2 min 0 min 865 W/m 18,8 km/h (3 Bft)
11.06.2015 12:46 25,5 C 27,2 C 43 % 0 lf 1018,8 hPa 0,0 l/m 2 min 0 min 907 W/m 18,8 km/h (3 Bft)
11.06.2015 12:48 25,7 C 27,2 C 47 % 0 lf 1018,7 hPa 0,0 l/m 2 min 0 min 906 W/m 20,9 km/h (4 Bft)
11.06.2015 12:50 25,8 C 27,2 C 44 % 0 lf 1018,8 hPa 0,0 l/m 2 min 0 min 901 W/m 29,3 km/h (5 Bft)
11.06.2015 12:52 25,8 C 26,1 C 43 % 0 lf 1018,7 hPa 0,0 l/m 2 min 0 min 925 W/m 20,9 km/h (4 Bft)
11.06.2015 12:54 25,9 C 25,6 C 43 % 0 lf 1018,7 hPa 0,0 l/m 2 min 0 min 931 W/m 16,7 km/h (3 Bft)
11.06.2015 12:56 25,9 C 25,6 C 43 % 0 lf 1018,7 hPa 0,0 l/m 2 min 0 min 928 W/m 20,9 km/h (4 Bft)
11.06.2015 12:58 26,0 C 25,6 C 43 % 0 lf 1018,7 hPa 0,0 l/m 2 min 0 min 931 W/m 16,7 km/h (3 Bft)
11.06.2015 13:00 26,1 C 25,6 C 42 % 0 lf 1018,6 hPa 0,0 l/m 2 min 0 min 919 W/m 18,8 km/h (3 Bft)
11.06.2015 13:02 26,1 C 25,6 C 43 % 0 lf 1018,7 hPa 0,0 l/m 2 min 0 min 926 W/m 20,9 km/h (4 Bft)
11.06.2015 13:04 26,2 C 25,6 C 43 % 0 lf 1018,7 hPa 0,0 l/m 2 min 0 min 917 W/m 23,0 km/h (4 Bft)
11.06.2015 13:06 26,2 C 26,1 C 42 % 0 lf 1018,6 hPa 0,0 l/m 2 min 0 min 914 W/m 18,8 km/h (3 Bft)
11.06.2015 13:08 26,2 C 27,2 C 42 % 0 lf 1018,6 hPa 0,0 l/m 2 min 0 min 912 W/m 14,6 km/h (3 Bft)
11.06.2015 13:10 26,2 C 27,8 C 42 % 0 lf 1018,6 hPa 0,0 l/m 2 min 0 min 924 W/m 14,6 km/h (3 Bft)
11.06.2015 13:12 26,2 C 28,3 C 42 % 0 lf 1018,6 hPa 0,0 l/m 2 min 0 min 932 W/m 20,9 km/h (4 Bft)
11.06.2015 13:14 26,2 C 28,9 C 42 % 0 lf 1018,6 hPa 0,0 l/m 2 min 0 min 927 W/m 10,5 km/h (2 Bft)
11.06.2015 13:16 26,2 C 29,4 C 42 % 0 lf 1018,4 hPa 0,0 l/m 2 min 0 min 958 W/m 25,1 km/h (4 Bft)
11.06.2015 13:18 26,3 C 28,9 C 43 % 0 lf 1018,5 hPa 0,0 l/m 2 min 0 min 960 W/m 27,2 km/h (4 Bft)
11.06.2015 13:20 26,4 C 27,8 C 42 % 0 lf 1018,6 hPa 0,0 l/m 2 min 0 min 1010 W/m 20,9 km/h (4 Bft)
11.06.2015 13:22 26,5 C 26,1 C 42 % 0 lf 1018,5 hPa 0,0 l/m 2 min 0 min 1028 W/m 29,3 km/h (5 Bft)
11.06.2015 13:24 26,5 C 25,6 C 41 % 0 lf 1018,5 hPa 0,0 l/m 2 min 0 min 969 W/m 35,6 km/h (5 Bft)
11.06.2015 13:26 26,4 C 24,4 C 41 % 0 lf 1018,5 hPa 0,0 l/m 2 min 0 min 865 W/m 16,7 km/h (3 Bft)
11.06.2015 13:28 26,3 C 24,4 C 42 % 0 lf 1018,4 hPa 0,0 l/m 2 min 0 min 524 W/m 16,7 km/h (3 Bft)
11.06.2015 13:30 26,3 C 25,0 C 43 % 0 lf 1018,4 hPa 0,0 l/m 2 min 0 min 895 W/m 20,9 km/h (4 Bft)
11.06.2015 13:32 26,3 C 25,6 C 42 % 0 lf 1018,3 hPa 0,0 l/m 2 min 0 min 955 W/m 18,8 km/h (3 Bft)
11.06.2015 13:34 26,4 C 25,6 C 42 % 0 lf 1018,4 hPa 0,0 l/m 2 min 0 min 1003 W/m 29,3 km/h (5 Bft)
11.06.2015 13:36 26,4 C 25,6 C 42 % 0 lf 1018,3 hPa 0,0 l/m 2 min 0 min 1026 W/m 31,4 km/h (5 Bft)
11.06.2015 13:38 26,4 C 24,4 C 41 % 0 lf 1018,2 hPa 0,0 l/m 2 min 0 min 756 W/m 18,8 km/h (3 Bft)
11.06.2015 13:40 26,4 C 25,0 C 42 % 0 lf 1018,1 hPa 0,0 l/m 2 min 0 min 776 W/m 16,7 km/h (3 Bft)
11.06.2015 13:42 26,4 C 25,6 C 43 % 0 lf 1018,2 hPa 0,0 l/m 2 min 0 min 930 W/m 20,9 km/h (4 Bft)
11.06.2015 13:44 26,4 C 25,6 C 42 % 0 lf 1018,1 hPa 0,0 l/m 2 min 0 min 1015 W/m 18,8 km/h (3 Bft)
11.06.2015 13:46 26,4 C 25,0 C 42 % 0 lf 1018,0 hPa 0,0 l/m 2 min 0 min 1020 W/m 14,6 km/h (3 Bft)
11.06.2015 13:48 26,5 C 25,6 C 42 % 0 lf 1017,9 hPa 0,0 l/m 2 min 0 min 1001 W/m 12,6 km/h (3 Bft)
11.06.2015 13:50 26,6 C 25,0 C 43 % 0 lf 1017,9 hPa 0,0 l/m 2 min 0 min 819 W/m 10,5 km/h (2 Bft)
11.06.2015 13:52 26,6 C 24,4 C 42 % 0 lf 1017,9 hPa 0,0 l/m 2 min 0 min 597 W/m 20,9 km/h (4 Bft)
11.06.2015 13:54 26,6 C 24,4 C 41 % 0 lf 1018,0 hPa 0,0 l/m 0 min 0 min 217 W/m 23,0 km/h (4 Bft)
11.06.2015 13:56 26,5 C 25,0 C 43 % 0 lf 1018,0 hPa 0,0 l/m 2 min 0 min 979 W/m 18,8 km/h (3 Bft)
11.06.2015 13:58 26,6 C 25,6 C 43 % 0 lf 1017,8 hPa 0,0 l/m 2 min 0 min 971 W/m 8,4 km/h (2 Bft)
11.06.2015 14:00 26,6 C 25,6 C 43 % 0 lf 1017,8 hPa 0,0 l/m 2 min 0 min 990 W/m 14,6 km/h (3 Bft)
11.06.2015 14:02 26,6 C 24,4 C 41 % 0 lf 1017,8 hPa 0,0 l/m 2 min 0 min 997 W/m 14,6 km/h (3 Bft)
11.06.2015 14:04 26,7 C 24,4 C 42 % 0 lf 1017,8 hPa 0,0 l/m 2 min 0 min 1017 W/m 8,4 km/h (2 Bft)
11.06.2015 14:06 26,7 C 24,4 C 42 % 0 lf 1017,7 hPa 0,0 l/m 2 min 0 min 1035 W/m 23,0 km/h (4 Bft)
11.06.2015 14:08 26,7 C 25,6 C 43 % 0 lf 1017,8 hPa 0,0 l/m 2 min 0 min 1021 W/m 16,7 km/h (3 Bft)
11.06.2015 14:10 26,7 C 25,6 C 42 % 0 lf 1017,7 hPa 0,0 l/m 2 min 0 min 1031 W/m 12,6 km/h (3 Bft)
11.06.2015 14:12 26,8 C 26,1 C 43 % 0 lf 1017,8 hPa 0,0 l/m 2 min 0 min 968 W/m 23,0 km/h (4 Bft)
11.06.2015 14:14 26,8 C 26,1 C 41 % 0 lf 1017,8 hPa 0,0 l/m 2 min 0 min 969 W/m 23,0 km/h (4 Bft)
11.06.2015 14:16 26,9 C 26,1 C 42 % 0 lf 1017,8 hPa 0,0 l/m 2 min 0 min 964 W/m 25,1 km/h (4 Bft)
11.06.2015 14:18 27,0 C 26,1 C 42 % 0 lf 1017,8 hPa 0,0 l/m 2 min 0 min 962 W/m 16,7 km/h (3 Bft)
11.06.2015 14:20 27,1 C 26,1 C 42 % 0 lf 1017,7 hPa 0,0 l/m 2 min 0 min 956 W/m 16,7 km/h (3 Bft)
11.06.2015 14:22 27,2 C 26,1 C 41 % 0 lf 1017,6 hPa 0,0 l/m 2 min 0 min 949 W/m 18,8 km/h (3 Bft)
11.06.2015 14:24 27,3 C 26,1 C 41 % 0 lf 1017,6 hPa 0,0 l/m 2 min 0 min 931 W/m 8,4 km/h (2 Bft)
11.06.2015 14:26 27,4 C 25,6 C 40 % 0 lf 1017,5 hPa 0,0 l/m 2 min 0 min 940 W/m 8,4 km/h (2 Bft)
11.06.2015 14:28 27,5 C 25,6 C 41 % 0 lf 1017,5 hPa 0,0 l/m 2 min 0 min 939 W/m 16,7 km/h (3 Bft)
11.06.2015 14:30 27,6 C 25,6 C 40 % 0 lf 1017,4 hPa 0,0 l/m 2 min 0 min 948 W/m 10,5 km/h (2 Bft)
11.06.2015 14:32 27,7 C 26,1 C 41 % 0 lf 1017,4 hPa 0,0 l/m 2 min 0 min 956 W/m 23,0 km/h (4 Bft)
11.06.2015 14:34 27,7 C 26,7 C 40 % 0 lf 1017,3 hPa 0,0 l/m 2 min 0 min 967 W/m 23,0 km/h (4 Bft)
11.06.2015 14:36 27,8 C 26,7 C 40 % 0 lf 1017,3 hPa 0,0 l/m 2 min 0 min 976 W/m 23,0 km/h (4 Bft)
11.06.2015 14:38 27,8 C 26,7 C 40 % 0 lf 1017,4 hPa 0,0 l/m 2 min 0 min 966 W/m 20,9 km/h (4 Bft)
11.06.2015 14:40 27,9 C 26,7 C 40 % 0 lf 1017,4 hPa 0,0 l/m 2 min 0 min 971 W/m 18,8 km/h (3 Bft)
11.06.2015 14:42 27,9 C 26,7 C 41 % 0 lf 1017,3 hPa 0,0 l/m 2 min 0 min 976 W/m 16,7 km/h (3 Bft)
11.06.2015 14:44 28,1 C 26,7 C 40 % 0 lf 1017,3 hPa 0,0 l/m 2 min 0 min 957 W/m 6,3 km/h (2 Bft)
11.06.2015 14:46 28,1 C 26,7 C 41 % 0 lf 1017,3 hPa 0,0 l/m 2 min 0 min 953 W/m 16,7 km/h (3 Bft)
11.06.2015 14:48 28,2 C 26,7 C 40 % 0 lf 1017,2 hPa 0,0 l/m 2 min 0 min 949 W/m 16,7 km/h (3 Bft)
11.06.2015 14:50 28,2 C 26,1 C 40 % 0 lf 1017,3 hPa 0,0 l/m 2 min 0 min 933 W/m 14,6 km/h (3 Bft)
11.06.2015 14:52 28,2 C 26,1 C 41 % 0 lf 1017,2 hPa 0,0 l/m 2 min 0 min 920 W/m 10,5 km/h (2 Bft)
11.06.2015 14:54 28,3 C 26,1 C 39 % 0 lf 1017,1 hPa 0,0 l/m 2 min 0 min 912 W/m 23,0 km/h (4 Bft)
11.06.2015 14:56 28,2 C 26,1 C 39 % 0 lf 1017,2 hPa 0,0 l/m 2 min 0 min 891 W/m 23,0 km/h (4 Bft)
11.06.2015 14:58 28,2 C 26,1 C 40 % 0 lf 1017,1 hPa 0,0 l/m 2 min 0 min 889 W/m 16,7 km/h (3 Bft)
11.06.2015 15:00 28,1 C 26,1 C 39 % 0 lf 1017,1 hPa 0,0 l/m 2 min 0 min 901 W/m 33,5 km/h (5 Bft)
11.06.2015 15:02 28,0 C 26,1 C 39 % 0 lf 1017,0 hPa 0,0 l/m 2 min 0 min 918 W/m 27,2 km/h (4 Bft)
11.06.2015 15:04 27,9 C 26,7 C 40 % 0 lf 1017,0 hPa 0,0 l/m 2 min 0 min 914 W/m 29,3 km/h (5 Bft)
11.06.2015 15:06 27,8 C 26,1 C 39 % 0 lf 1017,0 hPa 0,0 l/m 2 min 0 min 915 W/m 23,0 km/h (4 Bft)
11.06.2015 15:08 27,8 C 26,7 C 41 % 0 lf 1017,1 hPa 0,0 l/m 2 min 0 min 896 W/m 18,8 km/h (3 Bft)
11.06.2015 15:10 27,8 C 26,1 C 41 % 0 lf 1017,0 hPa 0,0 l/m 2 min 0 min 870 W/m 20,9 km/h (4 Bft)
11.06.2015 15:12 27,9 C 26,7 C 42 % 0 lf 1017,0 hPa 0,0 l/m 2 min 0 min 875 W/m 23,0 km/h (4 Bft)
11.06.2015 15:14 27,9 C 26,7 C 40 % 0 lf 1017,0 hPa 0,0 l/m 2 min 0 min 890 W/m 23,0 km/h (4 Bft)
11.06.2015 15:16 28,0 C 26,1 C 40 % 0 lf 1017,0 hPa 0,0 l/m 2 min 0 min 885 W/m 18,8 km/h (3 Bft)
11.06.2015 15:18 28,0 C 26,1 C 40 % 0 lf 1017,0 hPa 0,0 l/m 2 min 0 min 866 W/m 20,9 km/h (4 Bft)
11.06.2015 15:20 28,0 C 25,6 C 39 % 0 lf 1017,0 hPa 0,0 l/m 2 min 0 min 875 W/m 18,8 km/h (3 Bft)
11.06.2015 15:22 28,0 C 26,1 C 40 % 0 lf 1016,9 hPa 0,0 l/m 2 min 0 min 872 W/m 29,3 km/h (5 Bft)
11.06.2015 15:24 28,0 C 26,7 C 40 % 0 lf 1017,0 hPa 0,0 l/m 2 min 0 min 875 W/m 25,1 km/h (4 Bft)
11.06.2015 15:26 28,0 C 26,7 C 40 % 0 lf 1017,0 hPa 0,0 l/m 2 min 0 min 869 W/m 23,0 km/h (4 Bft)
11.06.2015 15:28 28,0 C 26,7 C 40 % 0 lf 1017,0 hPa 0,0 l/m 2 min 0 min 898 W/m 16,7 km/h (3 Bft)
11.06.2015 15:30 28,0 C 26,7 C 40 % 0 lf 1016,9 hPa 0,0 l/m 2 min 0 min 920 W/m 12,6 km/h (3 Bft)
11.06.2015 15:32 28,1 C 26,1 C 40 % 0 lf 1016,9 hPa 0,0 l/m 2 min 0 min 689 W/m 18,8 km/h (3 Bft)
11.06.2015 15:34 27,9 C 25,6 C 39 % 0 lf 1016,8 hPa 0,0 l/m 0 min 0 min 302 W/m 16,7 km/h (3 Bft)
11.06.2015 15:36 27,8 C 25,0 C 39 % 0 lf 1016,8 hPa 0,0 l/m 0 min 0 min 304 W/m 16,7 km/h (3 Bft)
11.06.2015 15:38 27,6 C 25,0 C 40 % 0 lf 1016,8 hPa 0,0 l/m 0 min 0 min 304 W/m 18,8 km/h (3 Bft)
11.06.2015 15:40 27,4 C 25,0 C 41 % 0 lf 1016,8 hPa 0,0 l/m 0 min 0 min 285 W/m 20,9 km/h (4 Bft)
11.06.2015 15:42 27,3 C 25,0 C 41 % 0 lf 1016,7 hPa 0,0 l/m 0 min 0 min 271 W/m 16,7 km/h (3 Bft)
11.06.2015 15:44 27,2 C 25,0 C 42 % 0 lf 1016,7 hPa 0,0 l/m 0 min 0 min 281 W/m 18,8 km/h (3 Bft)
11.06.2015 15:46 27,1 C 25,6 C 41 % 0 lf 1016,8 hPa 0,0 l/m 2 min 0 min 784 W/m 27,2 km/h (4 Bft)
11.06.2015 15:48 27,0 C 25,0 C 41 % 0 lf 1016,7 hPa 0,0 l/m 2 min 0 min 424 W/m 20,9 km/h (4 Bft)
11.06.2015 15:50 27,0 C 25,6 C 42 % 0 lf 1016,6 hPa 0,0 l/m 2 min 0 min 839 W/m 20,9 km/h (4 Bft)
11.06.2015 15:52 27,0 C 26,1 C 43 % 0 lf 1016,6 hPa 0,0 l/m 2 min 0 min 809 W/m 23,0 km/h (4 Bft)
11.06.2015 15:54 27,1 C 26,1 C 42 % 0 lf 1016,6 hPa 0,0 l/m 2 min 0 min 800 W/m 23,0 km/h (4 Bft)
11.06.2015 15:56 27,2 C 26,1 C 41 % 0 lf 1016,5 hPa 0,0 l/m 2 min 0 min 792 W/m 12,6 km/h (3 Bft)
11.06.2015 15:58 27,2 C 26,7 C 41 % 0 lf 1016,5 hPa 0,0 l/m 2 min 0 min 790 W/m 18,8 km/h (3 Bft)
11.06.2015 16:00 27,3 C 27,8 C 41 % 0 lf 1016,4 hPa 0,0 l/m 2 min 0 min 796 W/m 18,8 km/h (3 Bft)
11.06.2015 16:02 27,3 C 27,8 C 42 % 0 lf 1016,4 hPa 0,0 l/m 2 min 0 min 794 W/m 12,6 km/h (3 Bft)
11.06.2015 16:04 27,3 C 27,8 C 41 % 0 lf 1016,5 hPa 0,0 l/m 0 min 0 min 307 W/m 23,0 km/h (4 Bft)
11.06.2015 16:06 27,3 C 28,9 C 41 % 0 lf 1016,5 hPa 0,0 l/m 2 min 0 min 620 W/m 18,8 km/h (3 Bft)
11.06.2015 16:08 27,3 C 28,9 C 41 % 0 lf 1016,5 hPa 0,0 l/m 2 min 0 min 807 W/m 20,9 km/h (4 Bft)
11.06.2015 16:10 27,3 C 29,4 C 41 % 0 lf 1016,4 hPa 0,0 l/m 2 min 0 min 833 W/m 14,6 km/h (3 Bft)
11.06.2015 16:12 27,3 C 29,4 C 41 % 0 lf 1016,3 hPa 0,0 l/m 2 min 0 min 858 W/m 23,0 km/h (4 Bft)
11.06.2015 16:14 27,3 C 30,0 C 41 % 0 lf 1016,4 hPa 0,0 l/m 2 min 0 min 605 W/m 27,2 km/h (4 Bft)
11.06.2015 16:16 27,3 C 29,4 C 41 % 0 lf 1016,3 hPa 0,0 l/m 2 min 0 min 814 W/m 20,9 km/h (4 Bft)
11.06.2015 16:18 27,3 C 28,9 C 41 % 0 lf 1016,3 hPa 0,0 l/m 0 min 0 min 314 W/m 20,9 km/h (4 Bft)
11.06.2015 16:20 27,3 C 28,3 C 41 % 0 lf 1016,3 hPa 0,0 l/m 2 min 0 min 434 W/m 23,0 km/h (4 Bft)
11.06.2015 16:22 27,3 C 27,8 C 41 % 0 lf 1016,3 hPa 0,0 l/m 2 min 0 min 549 W/m 20,9 km/h (4 Bft)
11.06.2015 16:24 27,2 C 26,7 C 41 % 0 lf 1016,3 hPa 0,0 l/m 0 min 0 min 258 W/m 20,9 km/h (4 Bft)
11.06.2015 16:26 27,2 C 27,2 C 41 % 0 lf 1016,3 hPa 0,0 l/m 2 min 0 min 498 W/m 25,1 km/h (4 Bft)
11.06.2015 16:28 27,2 C 28,3 C 41 % 0 lf 1016,3 hPa 0,0 l/m 2 min 0 min 753 W/m 20,9 km/h (4 Bft)
11.06.2015 16:30 27,2 C 28,3 C 41 % 0 lf 1016,3 hPa 0,0 l/m 2 min 0 min 737 W/m 18,8 km/h (3 Bft)
11.06.2015 16:32 27,3 C 28,9 C 41 % 0 lf 1016,2 hPa 0,0 l/m 2 min 0 min 722 W/m 12,6 km/h (3 Bft)
11.06.2015 16:34 27,3 C 28,9 C 41 % 0 lf 1016,3 hPa 0,0 l/m 2 min 0 min 720 W/m 8,4 km/h (2 Bft)
11.06.2015 16:36 27,4 C 29,4 C 43 % 0 lf 1016,2 hPa 0,0 l/m 2 min 0 min 717 W/m 14,6 km/h (3 Bft)
11.06.2015 16:38 27,5 C 29,4 C 40 % 0 lf 1016,2 hPa 0,0 l/m 2 min 0 min 722 W/m 20,9 km/h (4 Bft)
11.06.2015 16:40 27,6 C 28,9 C 41 % 0 lf 1016,2 hPa 0,0 l/m 2 min 0 min 717 W/m 18,8 km/h (3 Bft)
11.06.2015 16:42 27,7 C 28,9 C 41 % 0 lf 1016,1 hPa 0,0 l/m 2 min 0 min 705 W/m 18,8 km/h (3 Bft)
11.06.2015 16:44 27,7 C 28,3 C 41 % 0 lf 1016,0 hPa 0,0 l/m 2 min 0 min 691 W/m 16,7 km/h (3 Bft)
11.06.2015 16:46 27,8 C 27,8 C 40 % 0 lf 1016,0 hPa 0,0 l/m 2 min 0 min 705 W/m 14,6 km/h (3 Bft)
11.06.2015 16:48 27,9 C 27,8 C 40 % 0 lf 1016,0 hPa 0,0 l/m 2 min 0 min 697 W/m 29,3 km/h (5 Bft)
11.06.2015 16:50 28,0 C 27,2 C 40 % 0 lf 1016,1 hPa 0,0 l/m 2 min 0 min 685 W/m 16,7 km/h (3 Bft)
11.06.2015 16:52 28,1 C 26,7 C 40 % 0 lf 1015,9 hPa 0,0 l/m 2 min 0 min 689 W/m 14,6 km/h (3 Bft)
11.06.2015 16:54 28,2 C 26,7 C 40 % 0 lf 1015,9 hPa 0,0 l/m 2 min 0 min 688 W/m 20,9 km/h (4 Bft)
11.06.2015 16:56 28,2 C 26,7 C 40 % 0 lf 1015,9 hPa 0,0 l/m 2 min 0 min 686 W/m 10,5 km/h (2 Bft)
11.06.2015 16:58 28,3 C 26,7 C 40 % 0 lf 1015,9 hPa 0,0 l/m 2 min 0 min 683 W/m 23,0 km/h (4 Bft)
11.06.2015 17:00 28,3 C 23,3 C 40 % 0 lf 1015,8 hPa 0,0 l/m 2 min 0 min 676 W/m 23,0 km/h (4 Bft)
11.06.2015 17:02 28,3 C 21,1 C 40 % 0 lf 1015,7 hPa 0,0 l/m 2 min 0 min 684 W/m 27,2 km/h (4 Bft)
11.06.2015 17:04 28,3 C 20,6 C 40 % 0 lf 1015,8 hPa 0,0 l/m 2 min 0 min 692 W/m 29,3 km/h (5 Bft)
11.06.2015 17:06 28,2 C 18,9 C 40 % 0 lf 1015,8 hPa 0,0 l/m 2 min 0 min 698 W/m 20,9 km/h (4 Bft)
11.06.2015 17:08 28,2 C 18,9 C 39 % 0 lf 1015,8 hPa 0,0 l/m 2 min 0 min 692 W/m 23,0 km/h (4 Bft)
11.06.2015 17:10 28,1 C 17,2 C 39 % 0 lf 1015,8 hPa 0,0 l/m 2 min 0 min 691 W/m 29,3 km/h (5 Bft)
11.06.2015 17:12 28,0 C 17,2 C 41 % 0 lf 1015,8 hPa 0,0 l/m 2 min 0 min 689 W/m 31,4 km/h (5 Bft)
11.06.2015 17:14 27,9 C 17,2 C 40 % 0 lf 1015,8 hPa 0,0 l/m 2 min 0 min 451 W/m 14,6 km/h (3 Bft)
11.06.2015 17:16 27,8 C 16,1 C 40 % 0 lf 1015,7 hPa 0,0 l/m 0 min 0 min 192 W/m 16,7 km/h (3 Bft)
11.06.2015 17:18 27,7 C 16,7 C 42 % 0 lf 1015,7 hPa 0,0 l/m 2 min 0 min 526 W/m 18,8 km/h (3 Bft)
11.06.2015 17:20 27,7 C 16,1 C 40 % 0 lf 1015,7 hPa 0,0 l/m 2 min 0 min 582 W/m 29,3 km/h (5 Bft)
11.06.2015 17:22 27,7 C 16,1 C 40 % 0 lf 1015,6 hPa 0,0 l/m 2 min 0 min 618 W/m 16,7 km/h (3 Bft)
11.06.2015 17:24 27,6 C 16,1 C 41 % 0 lf 1015,6 hPa 0,0 l/m 2 min 0 min 590 W/m 16,7 km/h (3 Bft)
11.06.2015 17:26 27,6 C 16,1 C 40 % 0 lf 1015,6 hPa 0,0 l/m 2 min 0 min 551 W/m 20,9 km/h (4 Bft)
11.06.2015 17:28 27,5 C 15,6 C 40 % 0 lf 1015,7 hPa 0,0 l/m 2 min 0 min 568 W/m 14,6 km/h (3 Bft)
11.06.2015 17:30 27,5 C 15,6 C 41 % 0 lf 1015,5 hPa 0,0 l/m 2 min 0 min 574 W/m 31,4 km/h (5 Bft)
11.06.2015 17:32 27,4 C 16,7 C 41 % 0 lf 1015,5 hPa 0,0 l/m 2 min 0 min 570 W/m 27,2 km/h (4 Bft)
11.06.2015 17:34 27,4 C 17,2 C 41 % 0 lf 1015,5 hPa 0,0 l/m 2 min 0 min 561 W/m 27,2 km/h (4 Bft)
11.06.2015 17:36 27,4 C 16,7 C 41 % 0 lf 1015,5 hPa 0,0 l/m 2 min 0 min 559 W/m 16,7 km/h (3 Bft)
11.06.2015 17:38 27,3 C 16,7 C 41 % 0 lf 1015,4 hPa 0,0 l/m 2 min 0 min 559 W/m 23,0 km/h (4 Bft)
11.06.2015 17:40 27,3 C 16,1 C 42 % 0 lf 1015,4 hPa 0,0 l/m 2 min 0 min 548 W/m 29,3 km/h (5 Bft)
11.06.2015 17:42 27,3 C 16,1 C 41 % 0 lf 1015,5 hPa 0,0 l/m 2 min 0 min 544 W/m 29,3 km/h (5 Bft)
11.06.2015 17:44 27,2 C 16,1 C 41 % 0 lf 1015,5 hPa 0,0 l/m 2 min 0 min 534 W/m 20,9 km/h (4 Bft)
11.06.2015 17:46 27,2 C 16,7 C 41 % 0 lf 1015,2 hPa 0,0 l/m 2 min 0 min 523 W/m 14,6 km/h (3 Bft)
11.06.2015 17:48 27,2 C 17,2 C 41 % 0 lf 1015,3 hPa 0,0 l/m 2 min 0 min 518 W/m 18,8 km/h (3 Bft)
11.06.2015 17:50 27,1 C 17,8 C 42 % 0 lf 1015,2 hPa 0,0 l/m 2 min 0 min 512 W/m 14,6 km/h (3 Bft)
11.06.2015 17:52 27,1 C 18,3 C 42 % 0 lf 1015,2 hPa 0,0 l/m 2 min 0 min 495 W/m 20,9 km/h (4 Bft)
11.06.2015 17:54 27,0 C 18,3 C 42 % 0 lf 1015,2 hPa 0,0 l/m 2 min 0 min 496 W/m 16,7 km/h (3 Bft)
11.06.2015 17:56 27,0 C 18,9 C 41 % 0 lf 1015,2 hPa 0,0 l/m 2 min 0 min 499 W/m 27,2 km/h (4 Bft)
11.06.2015 17:58 26,9 C 18,9 C 42 % 0 lf 1015,1 hPa 0,0 l/m 2 min 0 min 491 W/m 23,0 km/h (4 Bft)
11.06.2015 18:00 26,9 C 19,4 C 41 % 0 lf 1015,1 hPa 0,0 l/m 2 min 0 min 495 W/m 23,0 km/h (4 Bft)
11.06.2015 18:02 26,8 C 19,4 C 41 % 0 lf 1015,0 hPa 0,0 l/m 2 min 0 min 489 W/m 18,8 km/h (3 Bft)
11.06.2015 18:06 26,7 C 19,4 C 42 % 0 lf 1015,0 hPa 0,0 l/m 2 min 0 min 475 W/m 23,0 km/h (4 Bft)
11.06.2015 18:08 26,6 C 20,0 C 42 % 0 lf 1014,9 hPa 0,0 l/m 2 min 0 min 479 W/m 23,0 km/h (4 Bft)
11.06.2015 18:10 26,6 C 20,0 C 43 % 0 lf 1014,9 hPa 0,0 l/m 2 min 0 min 468 W/m 18,8 km/h (3 Bft)
11.06.2015 18:12 26,6 C 21,1 C 43 % 0 lf 1015,0 hPa 0,0 l/m 2 min 0 min 466 W/m 18,8 km/h (3 Bft)
11.06.2015 18:14 26,5 C 21,7 C 43 % 0 lf 1014,9 hPa 0,0 l/m 2 min 0 min 466 W/m 25,1 km/h (4 Bft)
11.06.2015 18:16 26,4 C 21,7 C 43 % 0 lf 1015,0 hPa 0,0 l/m 2 min 0 min 458 W/m 20,9 km/h (4 Bft)
11.06.2015 18:18 26,4 C 22,2 C 43 % 0 lf 1014,9 hPa 0,0 l/m 2 min 0 min 448 W/m 14,6 km/h (3 Bft)
11.06.2015 18:20 26,3 C 22,2 C 43 % 0 lf 1014,9 hPa 0,0 l/m 2 min 0 min 448 W/m 23,0 km/h (4 Bft)
11.06.2015 18:22 26,3 C 22,8 C 43 % 0 lf 1014,8 hPa 0,0 l/m 2 min 0 min 437 W/m 18,8 km/h (3 Bft)
11.06.2015 18:24 26,2 C 22,8 C 43 % 0 lf 1014,9 hPa 0,0 l/m 2 min 0 min 408 W/m 20,9 km/h (4 Bft)
11.06.2015 18:26 26,2 C 22,8 C 43 % 0 lf 1014,8 hPa 0,0 l/m 2 min 0 min 417 W/m 16,7 km/h (3 Bft)
11.06.2015 18:28 26,1 C 22,8 C 44 % 0 lf 1014,8 hPa 0,0 l/m 2 min 0 min 427 W/m 14,6 km/h (3 Bft)
11.06.2015 18:30 26,1 C 22,8 C 44 % 0 lf 1014,8 hPa 0,0 l/m 2 min 0 min 422 W/m 29,3 km/h (5 Bft)
11.06.2015 18:32 26,1 C 22,8 C 44 % 0 lf 1014,8 hPa 0,0 l/m 2 min 0 min 399 W/m 27,2 km/h (4 Bft)
11.06.2015 18:34 26,0 C 22,8 C 45 % 0 lf 1014,8 hPa 0,0 l/m 2 min 0 min 392 W/m 25,1 km/h (4 Bft)
11.06.2015 18:36 25,9 C 22,8 C 44 % 0 lf 1014,7 hPa 0,0 l/m 2 min 0 min 257 W/m 20,9 km/h (4 Bft)
11.06.2015 18:38 25,9 C 22,8 C 44 % 0 lf 1014,7 hPa 0,0 l/m 0 min 0 min 116 W/m 20,9 km/h (4 Bft)
11.06.2015 18:40 25,8 C 22,8 C 44 % 0 lf 1014,6 hPa 0,0 l/m 2 min 0 min 220 W/m 16,7 km/h (3 Bft)
11.06.2015 18:42 25,8 C 22,8 C 44 % 0 lf 1014,8 hPa 0,0 l/m 2 min 0 min 383 W/m 18,8 km/h (3 Bft)
11.06.2015 18:44 25,8 C 22,8 C 45 % 0 lf 1014,7 hPa 0,0 l/m 2 min 0 min 364 W/m 14,6 km/h (3 Bft)
11.06.2015 18:46 25,7 C 22,8 C 45 % 0 lf 1014,6 hPa 0,0 l/m 2 min 0 min 362 W/m 16,7 km/h (3 Bft)
11.06.2015 18:48 25,7 C 22,8 C 45 % 0 lf 1014,6 hPa 0,0 l/m 2 min 0 min 360 W/m 20,9 km/h (4 Bft)
11.06.2015 18:50 25,7 C 22,8 C 45 % 0 lf 1014,6 hPa 0,0 l/m 2 min 0 min 355 W/m 20,9 km/h (4 Bft)
11.06.2015 18:52 25,7 C 22,8 C 45 % 0 lf 1014,6 hPa 0,0 l/m 2 min 0 min 347 W/m 27,2 km/h (4 Bft)
11.06.2015 18:54 25,7 C 23,3 C 45 % 0 lf 1014,6 hPa 0,0 l/m 2 min 0 min 324 W/m 27,2 km/h (4 Bft)
11.06.2015 18:56 25,7 C 23,3 C 44 % 0 lf 1014,7 hPa 0,0 l/m 2 min 0 min 320 W/m 29,3 km/h (5 Bft)
11.06.2015 18:58 25,7 C 22,8 C 45 % 0 lf 1014,8 hPa 0,0 l/m 2 min 0 min 339 W/m 20,9 km/h (4 Bft)
11.06.2015 19:00 25,6 C 22,8 C 45 % 0 lf 1014,7 hPa 0,0 l/m 2 min 0 min 333 W/m 20,9 km/h (4 Bft)
11.06.2015 19:02 25,6 C 22,8 C 45 % 0 lf 1014,7 hPa 0,0 l/m 2 min 0 min 324 W/m 14,6 km/h (3 Bft)
11.06.2015 19:04 25,6 C 22,8 C 45 % 0 lf 1014,6 hPa 0,0 l/m 2 min 0 min 314 W/m 16,7 km/h (3 Bft)
11.06.2015 19:06 25,6 C 22,8 C 45 % 0 lf 1014,6 hPa 0,0 l/m 2 min 0 min 310 W/m 20,9 km/h (4 Bft)
11.06.2015 19:08 25,5 C 22,8 C 45 % 0 lf 1014,6 hPa 0,0 l/m 2 min 0 min 311 W/m 20,9 km/h (4 Bft)
11.06.2015 19:10 25,5 C 22,8 C 46 % 0 lf 1014,5 hPa 0,0 l/m 2 min 0 min 304 W/m 20,9 km/h (4 Bft)
11.06.2015 19:12 25,4 C 22,8 C 45 % 0 lf 1014,5 hPa 0,0 l/m 2 min 0 min 296 W/m 27,2 km/h (4 Bft)
11.06.2015 19:14 25,4 C 22,8 C 46 % 0 lf 1014,5 hPa 0,0 l/m 2 min 0 min 287 W/m 16,7 km/h (3 Bft)
11.06.2015 19:16 25,4 C 22,8 C 46 % 0 lf 1014,5 hPa 0,0 l/m 2 min 0 min 275 W/m 23,0 km/h (4 Bft)
11.06.2015 19:18 25,4 C 22,8 C 46 % 0 lf 1014,5 hPa 0,0 l/m 2 min 0 min 229 W/m 23,0 km/h (4 Bft)
11.06.2015 19:20 25,3 C 22,8 C 46 % 0 lf 1014,4 hPa 0,0 l/m 2 min 0 min 265 W/m 14,6 km/h (3 Bft)
11.06.2015 19:22 25,3 C 22,8 C 47 % 0 lf 1014,4 hPa 0,0 l/m 2 min 0 min 263 W/m 23,0 km/h (4 Bft)
11.06.2015 19:24 25,3 C 22,8 C 46 % 0 lf 1014,4 hPa 0,0 l/m 2 min 0 min 261 W/m 25,1 km/h (4 Bft)
11.06.2015 19:26 25,2 C 22,8 C 47 % 0 lf 1014,4 hPa 0,0 l/m 2 min 0 min 256 W/m 25,1 km/h (4 Bft)
11.06.2015 19:28 25,2 C 22,8 C 46 % 0 lf 1014,4 hPa 0,0 l/m 2 min 0 min 253 W/m 18,8 km/h (3 Bft)
11.06.2015 19:30 25,1 C 22,8 C 47 % 0 lf 1014,4 hPa 0,0 l/m 2 min 0 min 250 W/m 18,8 km/h (3 Bft)
11.06.2015 19:32 25,1 C 22,8 C 47 % 0 lf 1014,4 hPa 0,0 l/m 2 min 0 min 245 W/m 14,6 km/h (3 Bft)
11.06.2015 19:34 25,1 C 22,2 C 47 % 0 lf 1014,4 hPa 0,0 l/m 2 min 0 min 238 W/m 12,6 km/h (3 Bft)
11.06.2015 19:36 25,1 C 22,2 C 47 % 0 lf 1014,4 hPa 0,0 l/m 2 min 0 min 233 W/m 23,0 km/h (4 Bft)
11.06.2015 19:38 25,1 C 22,2 C 47 % 0 lf 1014,4 hPa 0,0 l/m 2 min 0 min 225 W/m 14,6 km/h (3 Bft)
11.06.2015 19:40 25,1 C 22,2 C 47 % 0 lf 1014,4 hPa 0,0 l/m 2 min 0 min 217 W/m 18,8 km/h (3 Bft)
11.06.2015 19:42 25,1 C 22,2 C 48 % 0 lf 1014,4 hPa 0,0 l/m 2 min 0 min 212 W/m 20,9 km/h (4 Bft)
11.06.2015 19:44 25,0 C 22,2 C 47 % 0 lf 1014,4 hPa 0,0 l/m 2 min 0 min 204 W/m 23,0 km/h (4 Bft)
11.06.2015 19:46 24,9 C 22,2 C 47 % 0 lf 1014,4 hPa 0,0 l/m 2 min 0 min 194 W/m 23,0 km/h (4 Bft)
11.06.2015 19:48 24,9 C 22,2 C 47 % 0 lf 1014,5 hPa 0,0 l/m 2 min 0 min 186 W/m 31,4 km/h (5 Bft)
11.06.2015 19:50 24,9 C 22,2 C 48 % 0 lf 1014,4 hPa 0,0 l/m 2 min 0 min 182 W/m 20,9 km/h (4 Bft)
11.06.2015 19:52 24,8 C 22,2 C 48 % 0 lf 1014,5 hPa 0,0 l/m 2 min 0 min 178 W/m 25,1 km/h (4 Bft)
11.06.2015 19:54 24,8 C 21,7 C 48 % 0 lf 1014,4 hPa 0,0 l/m 2 min 0 min 172 W/m 16,7 km/h (3 Bft)
11.06.2015 19:56 24,7 C 21,7 C 48 % 0 lf 1014,5 hPa 0,0 l/m 2 min 0 min 164 W/m 23,0 km/h (4 Bft)
11.06.2015 19:58 24,7 C 22,2 C 48 % 0 lf 1014,5 hPa 0,0 l/m 2 min 0 min 159 W/m 25,1 km/h (4 Bft)
11.06.2015 20:00 24,7 C 22,2 C 48 % 0 lf 1014,5 hPa 0,0 l/m 2 min 0 min 159 W/m 23,0 km/h (4 Bft)
11.06.2015 20:02 24,6 C 22,2 C 48 % 0 lf 1014,5 hPa 0,0 l/m 2 min 0 min 154 W/m 23,0 km/h (4 Bft)
11.06.2015 20:04 24,6 C 22,2 C 48 % 0 lf 1014,4 hPa 0,0 l/m 2 min 0 min 147 W/m 23,0 km/h (4 Bft)
11.06.2015 20:06 24,5 C 21,7 C 48 % 0 lf 1014,3 hPa 0,0 l/m 2 min 0 min 142 W/m 23,0 km/h (4 Bft)
11.06.2015 20:08 24,4 C 21,7 C 48 % 0 lf 1014,3 hPa 0,0 l/m 2 min 0 min 137 W/m 20,9 km/h (4 Bft)
11.06.2015 20:10 24,4 C 21,7 C 48 % 0 lf 1014,3 hPa 0,0 l/m 2 min 0 min 132 W/m 23,0 km/h (4 Bft)
11.06.2015 20:12 24,4 C 21,7 C 49 % 0 lf 1014,3 hPa 0,0 l/m 2 min 0 min 125 W/m 14,6 km/h (3 Bft)
11.06.2015 20:14 24,3 C 21,7 C 49 % 0 lf 1014,3 hPa 0,0 l/m 2 min 0 min 121 W/m 20,9 km/h (4 Bft)
11.06.2015 20:16 24,3 C 21,7 C 49 % 0 lf 1014,2 hPa 0,0 l/m 2 min 0 min 116 W/m 16,7 km/h (3 Bft)
11.06.2015 20:18 24,3 C 21,7 C 49 % 0 lf 1014,2 hPa 0,0 l/m 2 min 0 min 112 W/m 18,8 km/h (3 Bft)
11.06.2015 20:20 24,2 C 21,7 C 49 % 0 lf 1014,3 hPa 0,0 l/m 2 min 0 min 109 W/m 18,8 km/h (3 Bft)
11.06.2015 20:22 24,2 C 21,7 C 49 % 0 lf 1014,3 hPa 0,0 l/m 2 min 0 min 103 W/m 16,7 km/h (3 Bft)
11.06.2015 20:24 24,2 C 21,7 C 49 % 0 lf 1014,2 hPa 0,0 l/m 2 min 0 min 98 W/m 20,9 km/h (4 Bft)
11.06.2015 20:26 24,1 C 21,1 C 50 % 0 lf 1014,2 hPa 0,0 l/m 2 min 0 min 94 W/m 14,6 km/h (3 Bft)
11.06.2015 20:28 24,1 C 21,7 C 49 % 0 lf 1014,2 hPa 0,0 l/m 2 min 0 min 90 W/m 18,8 km/h (3 Bft)
11.06.2015 20:30 24,1 C 21,7 C 49 % 0 lf 1014,2 hPa 0,0 l/m 2 min 0 min 86 W/m 18,8 km/h (3 Bft)
11.06.2015 20:32 24,0 C 21,1 C 49 % 0 lf 1014,1 hPa 0,0 l/m 2 min 0 min 82 W/m 18,8 km/h (3 Bft)
11.06.2015 20:34 23,9 C 21,1 C 50 % 0 lf 1014,1 hPa 0,0 l/m 2 min 0 min 76 W/m 18,8 km/h (3 Bft)
11.06.2015 20:36 23,9 C 21,1 C 49 % 0 lf 1014,1 hPa 0,0 l/m 2 min 0 min 74 W/m 18,8 km/h (3 Bft)
11.06.2015 20:38 23,9 C 21,1 C 50 % 0 lf 1014,1 hPa 0,0 l/m 2 min 0 min 71 W/m 16,7 km/h (3 Bft)
11.06.2015 20:40 23,8 C 21,1 C 50 % 0 lf 1014,1 hPa 0,0 l/m 0 min 0 min 67 W/m 14,6 km/h (3 Bft)
11.06.2015 20:42 23,8 C 21,1 C 50 % 0 lf 1014,1 hPa 0,0 l/m 0 min 0 min 64 W/m 16,7 km/h (3 Bft)
11.06.2015 20:44 23,8 C 21,1 C 50 % 0 lf 1014,1 hPa 0,0 l/m 0 min 0 min 61 W/m 20,9 km/h (4 Bft)
11.06.2015 20:46 23,7 C 21,1 C 50 % 0 lf 1014,1 hPa 0,0 l/m 0 min 0 min 57 W/m 16,7 km/h (3 Bft)
11.06.2015 20:48 23,7 C 21,1 C 50 % 0 lf 1014,1 hPa 0,0 l/m 0 min 0 min 54 W/m 16,7 km/h (3 Bft)
11.06.2015 20:50 23,6 C 21,1 C 50 % 0 lf 1014,1 hPa 0,0 l/m 0 min 0 min 52 W/m 16,7 km/h (3 Bft)
11.06.2015 20:52 23,6 C 21,1 C 50 % 0 lf 1014,1 hPa 0,0 l/m 0 min 0 min 48 W/m 16,7 km/h (3 Bft)
11.06.2015 20:54 23,6 C 20,6 C 51 % 0 lf 1014,1 hPa 0,0 l/m 0 min 0 min 45 W/m 10,5 km/h (2 Bft)
11.06.2015 20:56 23,5 C 20,6 C 51 % 0 lf 1014,1 hPa 0,0 l/m 0 min 0 min 42 W/m 10,5 km/h (2 Bft)
11.06.2015 20:58 23,4 C 20,6 C 51 % 0 lf 1014,1 hPa 0,0 l/m 0 min 0 min 39 W/m 14,6 km/h (3 Bft)
11.06.2015 21:00 23,4 C 20,6 C 52 % 0 lf 1014,1 hPa 0,0 l/m 0 min 0 min 37 W/m 16,7 km/h (3 Bft)
11.06.2015 21:02 23,4 C 20,6 C 52 % 0 lf 1014,1 hPa 0,0 l/m 0 min 0 min 35 W/m 14,6 km/h (3 Bft)
11.06.2015 21:04 23,3 C 20,6 C 51 % 0 lf 1014,1 hPa 0,0 l/m 0 min 0 min 33 W/m 20,9 km/h (4 Bft)
11.06.2015 21:06 23,3 C 20,6 C 51 % 0 lf 1014,1 hPa 0,0 l/m 0 min 0 min 31 W/m 23,0 km/h (4 Bft)
11.06.2015 21:08 23,2 C 20,0 C 51 % 0 lf 1014,1 hPa 0,0 l/m 0 min 0 min 29 W/m 16,7 km/h (3 Bft)
11.06.2015 21:10 23,2 C 20,0 C 52 % 0 lf 1014,1 hPa 0,0 l/m 0 min 0 min 28 W/m 16,7 km/h (3 Bft)
11.06.2015 21:12 23,1 C 20,0 C 52 % 0 lf 1014,1 hPa 0,0 l/m 0 min 0 min 26 W/m 16,7 km/h (3 Bft)
11.06.2015 21:14 23,1 C 20,0 C 52 % 0 lf 1014,1 hPa 0,0 l/m 0 min 0 min 25 W/m 12,6 km/h (3 Bft)
11.06.2015 21:16 23,0 C 20,0 C 52 % 0 lf 1014,1 hPa 0,0 l/m 0 min 0 min 23 W/m 12,6 km/h (3 Bft)
11.06.2015 21:18 22,9 C 20,0 C 52 % 0 lf 1014,1 hPa 0,0 l/m 0 min 0 min 22 W/m 18,8 km/h (3 Bft)
11.06.2015 21:20 22,9 C 20,0 C 52 % 0 lf 1014,1 hPa 0,0 l/m 0 min 0 min 21 W/m 8,4 km/h (2 Bft)
11.06.2015 21:22 22,8 C 20,0 C 52 % 0 lf 1014,1 hPa 0,0 l/m 0 min 0 min 19 W/m 12,6 km/h (3 Bft)
11.06.2015 21:24 22,8 C 19,4 C 52 % 0 lf 1014,1 hPa 0,0 l/m 0 min 0 min 19 W/m 12,6 km/h (3 Bft)
11.06.2015 21:26 22,7 C 20,0 C 52 % 0 lf 1014,0 hPa 0,0 l/m 0 min 0 min 18 W/m 16,7 km/h (3 Bft)
11.06.2015 21:28 22,7 C 20,0 C 52 % 0 lf 1014,0 hPa 0,0 l/m 0 min 0 min 16 W/m 10,5 km/h (2 Bft)
11.06.2015 21:30 22,6 C 19,4 C 53 % 0 lf 1014,0 hPa 0,0 l/m 0 min 0 min 15 W/m 14,6 km/h (3 Bft)
11.06.2015 21:32 22,6 C 19,4 C 53 % 0 lf 1014,1 hPa 0,0 l/m 0 min 0 min 14 W/m 14,6 km/h (3 Bft)
11.06.2015 21:34 22,5 C 19,4 C 53 % 0 lf 1014,1 hPa 0,0 l/m 0 min 0 min 13 W/m 10,5 km/h (2 Bft)
11.06.2015 21:36 22,4 C 19,4 C 53 % 0 lf 1014,0 hPa 0,0 l/m 0 min 0 min 12 W/m 6,3 km/h (2 Bft)
11.06.2015 21:38 22,4 C 19,4 C 53 % 0 lf 1014,0 hPa 0,0 l/m 0 min 0 min 11 W/m 10,5 km/h (2 Bft)
11.06.2015 21:40 22,3 C 19,4 C 53 % 0 lf 1014,1 hPa 0,0 l/m 0 min 0 min 11 W/m 16,7 km/h (3 Bft)
11.06.2015 21:42 22,3 C 19,4 C 53 % 0 lf 1014,0 hPa 0,0 l/m 0 min 0 min 9 W/m 10,5 km/h (2 Bft)
11.06.2015 21:44 22,2 C 19,4 C 53 % 0 lf 1014,0 hPa 0,0 l/m 0 min 0 min 9 W/m 14,6 km/h (3 Bft)
11.06.2015 21:46 22,2 C 19,4 C 54 % 0 lf 1014,1 hPa 0,0 l/m 0 min 0 min 8 W/m 12,6 km/h (3 Bft)
11.06.2015 21:48 22,2 C 18,9 C 54 % 0 lf 1014,1 hPa 0,0 l/m 0 min 0 min 7 W/m 14,6 km/h (3 Bft)
11.06.2015 21:50 22,1 C 18,9 C 54 % 0 lf 1014,1 hPa 0,0 l/m 0 min 0 min 7 W/m 10,5 km/h (2 Bft)
11.06.2015 21:52 22,1 C 18,9 C 54 % 0 lf 1014,1 hPa 0,0 l/m 0 min 0 min 5 W/m 14,6 km/h (3 Bft)
11.06.2015 21:54 22,0 C 18,9 C 54 % 0 lf 1014,1 hPa 0,0 l/m 0 min 0 min 5 W/m 14,6 km/h (3 Bft)
11.06.2015 21:56 21,9 C 18,9 C 54 % 0 lf 1014,1 hPa 0,0 l/m 0 min 0 min 4 W/m 16,7 km/h (3 Bft)
11.06.2015 21:58 21,9 C 18,3 C 54 % 0 lf 1014,1 hPa 0,0 l/m 0 min 0 min 0 W/m 14,6 km/h (3 Bft)
11.06.2015 22:00 21,8 C 18,3 C 54 % 0 lf 1014,2 hPa 0,0 l/m 0 min 0 min 0 W/m 6,3 km/h (2 Bft)
11.06.2015 22:02 21,8 C 18,3 C 54 % 0 lf 1014,2 hPa 0,0 l/m 0 min 0 min 0 W/m 8,4 km/h (2 Bft)
11.06.2015 22:04 21,7 C 18,3 C 54 % 0 lf 1014,2 hPa 0,0 l/m 0 min 0 min 0 W/m 10,5 km/h (2 Bft)
11.06.2015 22:06 21,7 C 18,3 C 54 % 0 lf 1014,2 hPa 0,0 l/m 0 min 0 min 0 W/m 12,6 km/h (3 Bft)
11.06.2015 22:08 21,6 C 18,3 C 54 % 0 lf 1014,3 hPa 0,0 l/m 0 min 0 min 0 W/m 14,6 km/h (3 Bft)
11.06.2015 22:10 21,6 C 18,3 C 55 % 0 lf 1014,3 hPa 0,0 l/m 0 min 0 min 0 W/m 8,4 km/h (2 Bft)
11.06.2015 22:12 21,5 C 18,3 C 55 % 0 lf 1014,4 hPa 0,0 l/m 0 min 0 min 0 W/m 12,6 km/h (3 Bft)
11.06.2015 22:14 21,4 C 18,3 C 55 % 0 lf 1014,3 hPa 0,0 l/m 0 min 0 min 0 W/m 14,6 km/h (3 Bft)
11.06.2015 22:16 21,3 C 17,8 C 56 % 0 lf 1014,4 hPa 0,0 l/m 0 min 0 min 0 W/m 10,5 km/h (2 Bft)
11.06.2015 22:18 21,3 C 17,8 C 56 % 0 lf 1014,4 hPa 0,0 l/m 0 min 0 min 0 W/m 12,6 km/h (3 Bft)
11.06.2015 22:20 21,2 C 17,8 C 56 % 0 lf 1014,4 hPa 0,0 l/m 0 min 0 min 0 W/m 12,6 km/h (3 Bft)
11.06.2015 22:22 21,2 C 17,8 C 55 % 0 lf 1014,4 hPa 0,0 l/m 0 min 0 min 0 W/m 10,5 km/h (2 Bft)
11.06.2015 22:24 21,1 C 17,8 C 55 % 0 lf 1014,4 hPa 0,0 l/m 0 min 0 min 0 W/m 12,6 km/h (3 Bft)
11.06.2015 22:26 21,1 C 17,8 C 56 % 0 lf 1014,4 hPa 0,0 l/m 0 min 0 min 0 W/m 6,3 km/h (2 Bft)
11.06.2015 22:28 21,0 C 17,8 C 56 % 0 lf 1014,4 hPa 0,0 l/m 0 min 0 min 0 W/m 10,5 km/h (2 Bft)
11.06.2015 22:30 20,9 C 17,8 C 56 % 0 lf 1014,4 hPa 0,0 l/m 0 min 0 min 0 W/m 10,5 km/h (2 Bft)
11.06.2015 22:32 20,9 C 17,2 C 56 % 0 lf 1014,4 hPa 0,0 l/m 0 min 0 min 0 W/m 12,6 km/h (3 Bft)
11.06.2015 22:34 20,8 C 17,2 C 56 % 0 lf 1014,5 hPa 0,0 l/m 0 min 0 min 0 W/m 10,5 km/h (2 Bft)
11.06.2015 22:36 20,8 C 17,2 C 56 % 0 lf 1014,4 hPa 0,0 l/m 0 min 0 min 0 W/m 8,4 km/h (2 Bft)
11.06.2015 22:38 20,7 C 17,2 C 57 % 0 lf 1014,4 hPa 0,0 l/m 0 min 0 min 0 W/m 8,4 km/h (2 Bft)
11.06.2015 22:40 20,7 C 17,2 C 57 % 0 lf 1014,4 hPa 0,0 l/m 0 min 0 min 0 W/m 8,4 km/h (2 Bft)
11.06.2015 22:42 20,6 C 17,2 C 57 % 0 lf 1014,4 hPa 0,0 l/m 0 min 0 min 0 W/m 10,5 km/h (2 Bft)
11.06.2015 22:44 20,6 C 17,2 C 57 % 0 lf 1014,4 hPa 0,0 l/m 0 min 0 min 0 W/m 6,3 km/h (2 Bft)
11.06.2015 22:46 20,5 C 16,7 C 57 % 0 lf 1014,4 hPa 0,0 l/m 0 min 0 min 0 W/m 10,5 km/h (2 Bft)
11.06.2015 22:48 20,4 C 16,7 C 57 % 0 lf 1014,4 hPa 0,0 l/m 0 min 0 min 0 W/m 10,5 km/h (2 Bft)
11.06.2015 22:50 20,4 C 16,7 C 57 % 0 lf 1014,4 hPa 0,0 l/m 0 min 0 min 0 W/m 8,4 km/h (2 Bft)
11.06.2015 22:52 20,4 C 16,7 C 57 % 0 lf 1014,3 hPa 0,0 l/m 0 min 0 min 0 W/m 6,3 km/h (2 Bft)
11.06.2015 22:54 20,3 C 16,7 C 57 % 0 lf 1014,3 hPa 0,0 l/m 0 min 0 min 0 W/m 8,4 km/h (2 Bft)
11.06.2015 22:56 20,3 C 16,7 C 58 % 0 lf 1014,3 hPa 0,0 l/m 0 min 0 min 0 W/m 10,5 km/h (2 Bft)
11.06.2015 22:58 20,2 C 16,7 C 58 % 0 lf 1014,2 hPa 0,0 l/m 0 min 0 min 0 W/m 6,3 km/h (2 Bft)
11.06.2015 23:00 20,2 C 16,7 C 58 % 0 lf 1014,2 hPa 0,0 l/m 0 min 0 min 0 W/m 6,3 km/h (2 Bft)
11.06.2015 23:02 20,1 C 16,7 C 58 % 0 lf 1014,2 hPa 0,0 l/m 0 min 0 min 0 W/m 6,3 km/h (2 Bft)
11.06.2015 23:04 20,0 C 16,7 C 58 % 0 lf 1014,2 hPa 0,0 l/m 0 min 0 min 0 W/m 10,5 km/h (2 Bft)
11.06.2015 23:06 19,9 C 16,7 C 59 % 0 lf 1014,2 hPa 0,0 l/m 0 min 0 min 0 W/m 14,6 km/h (3 Bft)
11.06.2015 23:08 19,9 C 16,7 C 59 % 0 lf 1014,2 hPa 0,0 l/m 0 min 0 min 0 W/m 8,4 km/h (2 Bft)
11.06.2015 23:10 19,9 C 16,7 C 59 % 0 lf 1014,3 hPa 0,0 l/m 0 min 0 min 0 W/m 10,5 km/h (2 Bft)
11.06.2015 23:12 19,8 C 16,7 C 59 % 0 lf 1014,2 hPa 0,0 l/m 0 min 0 min 0 W/m 12,6 km/h (3 Bft)
11.06.2015 23:14 19,7 C 16,7 C 59 % 0 lf 1014,1 hPa 0,0 l/m 0 min 0 min 0 W/m 8,4 km/h (2 Bft)
11.06.2015 23:16 19,7 C 16,7 C 59 % 0 lf 1014,1 hPa 0,0 l/m 0 min 0 min 0 W/m 10,5 km/h (2 Bft)
11.06.2015 23:18 19,6 C 16,7 C 59 % 0 lf 1014,1 hPa 0,0 l/m 0 min 0 min 0 W/m 8,4 km/h (2 Bft)
11.06.2015 23:20 19,6 C 16,7 C 60 % 0 lf 1014,1 hPa 0,0 l/m 0 min 0 min 0 W/m 10,5 km/h (2 Bft)
11.06.2015 23:22 19,5 C 16,7 C 60 % 0 lf 1014,1 hPa 0,0 l/m 0 min 0 min 0 W/m 12,6 km/h (3 Bft)
11.06.2015 23:24 19,4 C 16,7 C 60 % 0 lf 1014,1 hPa 0,0 l/m 0 min 0 min 0 W/m 12,6 km/h (3 Bft)
11.06.2015 23:26 19,4 C 16,1 C 60 % 0 lf 1014,1 hPa 0,0 l/m 0 min 0 min 0 W/m 10,5 km/h (2 Bft)
11.06.2015 23:28 19,4 C 16,1 C 60 % 0 lf 1014,1 hPa 0,0 l/m 0 min 0 min 0 W/m 10,5 km/h (2 Bft)
11.06.2015 23:30 19,3 C 16,7 C 60 % 0 lf 1014,0 hPa 0,0 l/m 0 min 0 min 0 W/m 8,4 km/h (2 Bft)
11.06.2015 23:32 19,2 C 16,7 C 60 % 0 lf 1014,0 hPa 0,0 l/m 0 min 0 min 0 W/m 6,3 km/h (2 Bft)
11.06.2015 23:34 19,2 C 16,1 C 60 % 0 lf 1014,0 hPa 0,0 l/m 0 min 0 min 0 W/m 6,3 km/h (2 Bft)
11.06.2015 23:36 19,2 C 16,1 C 60 % 0 lf 1014,0 hPa 0,0 l/m 0 min 0 min 0 W/m 12,6 km/h (3 Bft)
11.06.2015 23:38 19,1 C 16,1 C 61 % 0 lf 1014,0 hPa 0,0 l/m 0 min 0 min 0 W/m 10,5 km/h (2 Bft)
11.06.2015 23:40 19,1 C 16,1 C 61 % 0 lf 1014,0 hPa 0,0 l/m 0 min 0 min 0 W/m 10,5 km/h (2 Bft)
11.06.2015 23:42 19,0 C 16,1 C 61 % 0 lf 1014,1 hPa 0,0 l/m 0 min 0 min 0 W/m 14,6 km/h (3 Bft)
11.06.2015 23:44 19,0 C 16,1 C 61 % 0 lf 1014,1 hPa 0,0 l/m 0 min 0 min 0 W/m 12,6 km/h (3 Bft)
11.06.2015 23:46 18,9 C 16,1 C 61 % 0 lf 1014,1 hPa 0,0 l/m 0 min 0 min 0 W/m 10,5 km/h (2 Bft)
11.06.2015 23:48 18,9 C 16,1 C 61 % 0 lf 1014,2 hPa 0,0 l/m 0 min 0 min 0 W/m 20,9 km/h (4 Bft)
11.06.2015 23:50 18,9 C 16,1 C 61 % 0 lf 1014,1 hPa 0,0 l/m 0 min 0 min 0 W/m 12,6 km/h (3 Bft)
11.06.2015 23:52 18,8 C 16,7 C 61 % 0 lf 1014,1 hPa 0,0 l/m 0 min 0 min 0 W/m 8,4 km/h (2 Bft)
11.06.2015 23:54 18,8 C 16,1 C 61 % 0 lf 1014,1 hPa 0,0 l/m 0 min 0 min 0 W/m 14,6 km/h (3 Bft)
11.06.2015 23:56 18,8 C 16,1 C 61 % 0 lf 1014,0 hPa 0,0 l/m 0 min 0 min 0 W/m 10,5 km/h (2 Bft)
11.06.2015 23:58 18,7 C 16,1 C 61 % 0 lf 1014,1 hPa 0,0 l/m 0 min 0 min 0 W/m 16,7 km/h (3 Bft)
_ Min-Zeit 06:10 05:24 14:54 00:00 21:26 - - - - 02:48
Minimum _ 12,8 C 11,1 C 39 % 0 lf 1014,0 hPa - - - - 4,2 km/h (1 Bft)
_ Max-Zeit 14:54 16:14 06:52 00:00 00:00 00:00 05:52 00:00 14:06 13:24
Maximum _ 28,3 C 30,0 C 82 % 0 lf 1022,9 hPa 0,0 l/m 2 min 0 min 1035 W/m 35,6 km/h
O-NO (5 Bft)
Durchschnitt _ 20,9 C 19,3 C 58 % 0 lf 1018,7 hPa #0,0 l/m #13:28 h #0 min. 492 W/m 15,0 km/h (3 Bft)
© 2015 W. Hausmann